Valiant — N/A — position and weather

sailwx.info

Track history (hours):
 
Tides and Currents Weather Stations Pressure Air Temp Water Temp Dewpoint Dewpoint Depression Visibility Wind Speed Wind Dir Waves Ship Positions

Valiant

Last reported at 2018-Feb-20 19:29 UTC. Time now 2018-Feb-20 19:54 UTC.
Position N 46°51' E 031°58'.

Length 11 m.

Type: Port tender. MMSI: 236111176.

Date/timePositionNaut miles runAvg speedWind from/ knotsBaromVisibWave heightAir tempDewpointWater temp
2018-Feb-20 19:29N 46°51' E 031°58'6077225547.4
2018-Feb-20 19:28N 29°33' W 095°02'607712846.8
2018-Feb-20 18:59N 46°51' E 031°58'6077225547.3
2018-Feb-20 18:58N 29°33' W 095°02'607712846.8
2018-Feb-20 18:29N 46°51' E 031°58'607778982.2
2018-Feb-20 18:25N 29°33' W 095°02'0 0.1
2018-Feb-20 18:00N 29°33' W 095°02'6077412794.0
2018-Feb-20 17:59N 46°51' E 031°58'607712523.2
2018-Feb-20 17:30N 29°33' W 095°02'6077412792.8
2018-Feb-20 17:29N 46°51' E 031°58'0 0.0
2018-Feb-20 16:59N 46°51' E 031°58'6077175024.6
2018-Feb-20 16:57N 29°33' W 095°02'607713069.3
2018-Feb-20 16:29N 46°51' E 031°58'607732800.7
2018-Feb-20 16:18N 29°33' W 095°02'0 0.0
2018-Feb-20 16:00N 29°33' W 095°02'6077412793.3
2018-Feb-20 15:59N 46°51' E 031°58'0 0.0
2018-Feb-20 15:29N 46°51' E 031°58'60773646343.3
2018-Feb-20 15:29N 29°33' W 095°02'607712195.1
2018-Feb-20 14:59N 46°51' E 031°58'60773125442.1
2018-Feb-20 14:59N 29°33' W 095°02'607712201.9
2018-Feb-20 14:29N 46°51' E 031°58'60773646352.2
2018-Feb-20 14:29N 29°33' W 095°02'607712195.2
2018-Feb-20 13:59N 46°51' E 031°58'55730.3
2018-Feb-20 13:55N 46°29' E 030°45'55116.3
2018-Feb-20 13:26N 46°51' E 031°58'552182.7
2018-Feb-20 13:25N 46°29' E 030°45'0 0.0
2018-Feb-20 12:58N 46°29' E 030°45'552159.0
2018-Feb-20 12:56N 46°51' E 031°58'0 0.0
2018-Feb-20 12:26N 46°51' E 031°58'55738.4
2018-Feb-20 12:22N 46°29' E 030°45'5592.3
2018-Feb-20 11:46N 46°51' E 031°59'0 1.1
2018-Feb-20 11:28N 46°51' E 031°58'0 0.0
2018-Feb-20 10:58N 46°51' E 031°58'0 0.0
2018-Feb-20 10:28N 46°51' E 031°58'0 0.0
2018-Feb-20 09:52N 46°51' E 031°58'0 0.0
2018-Feb-20 09:28N 46°51' E 031°58'0 0.0
2018-Feb-20 08:58N 46°51' E 031°58'0 0.0
2018-Feb-20 08:28N 46°51' E 031°58'607745202.6
2018-Feb-20 08:20N 29°33' W 095°02'607716624.7
2018-Feb-20 07:58N 46°51' E 031°58'6077176436.2
2018-Feb-20 07:56N 29°33' W 095°02'0 0.0
2018-Feb-20 07:29N 29°33' W 095°02'6077397783.4
2018-Feb-20 07:28N 46°51' E 031°58'55277.8
2018-Feb-20 07:16N 46°29' E 030°45'603121120.1
2018-Feb-20 06:59N 29°33' W 095°02'6077390679.7
2018-Feb-20 06:58N 46°51' E 031°58'551135.0
2018-Feb-20 06:55N 46°29' E 030°45'603113820.1
2018-Feb-20 06:29N 29°33' W 095°02'6031443090.2
2018-Feb-20 06:28N 46°29' E 030°45'5539726.8
2018-Feb-20 06:28N 46°51' E 031°58'607712749.5
2018-Feb-20 05:59N 29°33' W 095°02'6077257388.8
2018-Feb-20 05:58N 46°51' E 031°58'551141.5
2018-Feb-20 05:55N 46°29' E 030°45'0 0.0
2018-Feb-20 05:28N 46°29' E 030°45'551073.7
2018-Feb-20 05:25N 46°51' E 031°58'6077175024.7
2018-Feb-20 05:23N 29°33' W 095°02'0 0.0
2018-Feb-20 04:59N 29°33' W 095°02'6077397783.5
2018-Feb-20 04:58N 46°51' E 031°58'607712530.4
2018-Feb-20 04:29N 29°33' W 095°02'6077397782.0
2018-Feb-20 04:28N 46°51' E 031°58'55185.1
2018-Feb-20 04:10N 46°29' E 030°45'55273.2
2018-Feb-20 03:58N 46°51' E 031°58'6077643471.9
2018-Feb-20 03:57N 29°33' W 095°02'607712395.5
2018-Feb-20 03:28N 46°51' E 031°58'607771731.3
2018-Feb-20 03:23N 29°33' W 095°02'607714634.2
2018-Feb-20 02:58N 46°51' E 031°58'607732850.0
2018-Feb-20 02:47N 29°33' W 095°02'603122950.8
2018-Feb-20 02:31N 46°29' E 030°45'6031160825.3
2018-Feb-20 02:29N 29°33' W 095°02'6031471987.0
2018-Feb-20 02:28N 46°29' E 030°45'5528412.9
2018-Feb-20 02:28N 46°51' E 031°59'607712530.7
2018-Feb-20 01:59N 29°33' W 095°02'6077405158.5
2018-Feb-20 01:58N 46°51' E 031°59'55279.4
2018-Feb-20 01:46N 46°29' E 030°45'55182.6
2018-Feb-20 01:28N 46°51' E 031°58'6077336585.8
2018-Feb-20 01:27N 29°33' W 095°02'603117580.1
2018-Feb-20 01:06N 46°29' E 030°45'603166395.8
2018-Feb-20 01:01N 29°33' W 095°02'6077125735.9
2018-Feb-20 00:58N 46°51' E 031°58'55342.5
2018-Feb-20 00:48N 46°29' E 030°45'603119684.0
2018-Feb-20 00:30N 29°33' W 095°02'6077186991.9
2018-Feb-20 00:28N 46°51' E 031°58'0 0.0
2018-Feb-19 23:58N 46°51' E 031°58'607788935.1
2018-Feb-19 23:54N 29°33' W 095°02'603120618.6
2018-Feb-19 23:36N 46°29' E 030°45'55397.3
2018-Feb-19 23:28N 46°51' E 031°58'6077331486.0
2018-Feb-19 23:27N 29°33' W 095°02'0 0.0
2018-Feb-19 23:00N 29°33' W 095°02'6077193611.3
2018-Feb-19 22:58N 46°51' E 031°58'0 0.0
2018-Feb-19 22:28N 46°51' E 031°58'607787863.8
2018-Feb-19 22:23N 29°33' W 095°02'6031144743.0
2018-Feb-19 22:21N 46°29' E 030°45'55141.7
2018-Feb-19 21:58N 46°51' E 031°58'607737785.9
2018-Feb-19 21:48N 29°33' W 095°02'607715616.0
2018-Feb-19 21:25N 46°51' E 031°58'55502.8
2018-Feb-19 21:18N 46°29' E 030°45'603124017.0
2018-Feb-19 21:03N 29°33' W 095°02'0 0.2
2018-Feb-19 21:00N 29°33' W 095°02'6077151930.9
2018-Feb-19 20:58N 46°51' E 031°58'55499.1
2018-Feb-19 20:51N 46°29' E 030°45'0 0.0
2018-Feb-19 20:30N 46°29' E 030°45'551742.3
2018-Feb-19 20:28N 46°51' E 031°58'6077575738.9
2018-Feb-19 20:27N 29°33' W 095°02'607712416.6
2018-Feb-19 19:58N 46°51' E 031°58'6077560976.8
2018-Feb-19 19:57N 29°33' W 095°02'603181930.0
2018-Feb-19 19:53N 46°29' E 030°45'55132.8
2018-Feb-19 19:28N 46°51' E 031°58'55504.1
2018-Feb-19 19:21N 46°29' E 030°45'55141.4
2018-Feb-19 18:58N 46°51' E 031°58'607754832.2
2018-Feb-19 18:51N 29°33' W 095°02'603160816.3
2018-Feb-19 18:45N 46°29' E 030°45'0 0.0
2018-Feb-19 18:30N 46°29' E 030°45'551379.3
2018-Feb-19 18:28N 46°51' E 031°58'6077560975.6
2018-Feb-19 18:27N 29°33' W 095°02'603112938.9
2018-Feb-19 17:59N 46°29' E 030°45'6031657922.7
2018-Feb-19 17:58N 29°33' W 095°02'6077428982.0
2018-Feb-19 17:58N 46°51' E 031°58'55113.7
2018-Feb-19 17:28N 46°29' E 030°45'603110855702.1
2018-Feb-19 17:28N 29°33' W 095°02'6077428981.3
2018-Feb-19 17:28N 46°51' E 031°58'0 0.0
2018-Feb-19 16:58N 46°51' E 031°58'552047.7
2018-Feb-19 16:56N 46°29' E 030°45'6031700367.9
2018-Feb-19 16:55N 29°33' W 095°02'603113435.3
2018-Feb-19 16:29N 46°29' E 030°45'553611.5
2018-Feb-19 16:28N 46°51' E 031°58'607725830.0
2018-Feb-19 16:14N 29°33' W 095°02'0 0.0
2018-Feb-19 15:58N 29°33' W 095°02'6031775409.1
2018-Feb-19 15:58N 46°29' E 030°45'55978.5
2018-Feb-19 15:55N 46°51' E 031°58'0 0.0
2018-Feb-19 15:28N 46°51' E 031°58'6077170922.2
2018-Feb-19 15:25N 29°33' W 095°02'6031775407.3
2018-Feb-19 15:25N 46°29' E 030°45'603113672.2
2018-Feb-19 14:59N 29°33' W 095°02'6077390680.0
2018-Feb-19 14:58N 46°51' E 031°58'551289.8
2018-Feb-19 14:55N 46°29' E 030°45'603113629.3
2018-Feb-19 14:28N 29°33' W 095°02'6077412794.3
2018-Feb-19 14:28N 46°51' E 031°58'55227.0
2018-Feb-19 14:13N 46°29' E 030°45'0 0.0
2018-Feb-19 13:59N 46°29' E 030°45'551757.8
2018-Feb-19 13:58N 46°51' E 031°58'607770802.8
2018-Feb-19 13:52N 29°33' W 095°02'0 0.0
2018-Feb-19 13:30N 29°33' W 095°02'6077127198.1
2018-Feb-19 13:28N 46°51' E 031°58'55717.1
2018-Feb-19 13:23N 46°29' E 030°45'603116058.7
2018-Feb-19 13:00N 29°33' W 095°02'6031246720.5
2018-Feb-19 12:59N 46°29' E 030°45'55758.1
2018-Feb-19 12:55N 46°51' E 031°58'55134.1
2018-Feb-19 12:30N 46°29' E 030°45'551418.8
2018-Feb-19 12:28N 46°51' E 031°58'6077170922.4
2018-Feb-19 12:25N 29°33' W 095°02'603114181.2
2018-Feb-19 12:00N 46°29' E 030°45'551408.7
2018-Feb-19 11:58N 46°51' E 031°58'607712508.9
2018-Feb-19 11:28N 29°33' W 095°02'6077428981.3
2018-Feb-19 11:28N 46°51' E 031°58'55177.5
2018-Feb-19 11:09N 46°29' E 030°45'603132946.0
2018-Feb-19 10:58N 29°33' W 095°02'6077994458.9
2018-Feb-19 10:58N 46°51' E 031°58'555093.3
2018-Feb-19 10:57N 46°29' E 030°45'603112470.7
2018-Feb-19 10:28N 29°33' W 095°02'60771093904.7
2018-Feb-19 10:28N 46°51' E 031°58'55915.4
2018-Feb-19 10:24N 46°29' E 030°45'55139.5
2018-Feb-19 10:00N 46°51' E 031°59'6078497261.3
2018-Feb-19 09:59N 29°33' W 095°02'6031145714.3
2018-Feb-19 09:57N 46°29' E 030°45'603113402.1
2018-Feb-19 09:30N 29°33' W 095°02'60771367379.3
2018-Feb-19 09:30N 46°51' E 031°58'0 0.0
2018-Feb-19 09:00N 46°51' E 031°58'55281.7
2018-Feb-19 08:48N 46°29' E 030°45'55136.5
2018-Feb-19 08:24N 46°51' E 031°58'6077131795.7
2018-Feb-19 08:21N 29°33' W 095°02'603130280.9
2018-Feb-19 08:09N 46°29' E 030°45'0 0.0
2018-Feb-19 08:00N 46°29' E 030°45'5510454.0
2018-Feb-19 08:00N 46°51' E 031°58'607763414.8
2018-Feb-19 07:54N 29°33' W 095°02'607715036.5
2018-Feb-19 07:30N 46°51' E 031°58'6077131006.6
2018-Feb-19 07:27N 29°33' W 095°02'603125970.6
2018-Feb-19 07:13N 46°29' E 030°45'603127728.5
2018-Feb-19 07:00N 29°33' W 095°02'60771562718.7
2018-Feb-19 07:00N 46°51' E 031°58'551966.6
2018-Feb-19 06:58N 46°29' E 030°45'55116.9
2018-Feb-19 06:30N 46°51' E 031°58'6077131006.4
2018-Feb-19 06:27N 29°33' W 095°02'603173598.1
2018-Feb-19 06:22N 46°29' E 030°45'603116778.6
2018-Feb-19 06:00N 29°33' W 095°02'6077497229.5
2018-Feb-19 06:00N 46°51' E 031°58'551986.3
2018-Feb-19 05:58N 46°29' E 030°45'55116.8
2018-Feb-19 05:30N 46°51' E 031°58'551947.4
2018-Feb-19 05:28N 46°29' E 030°45'6031230972.7
2018-Feb-19 05:26N 29°33' W 095°02'603113646.4
2018-Feb-19 05:00N 46°29' E 030°45'5515278.9
2018-Feb-19 05:00N 46°51' E 031°58'60771286946.8
2018-Feb-19 04:59N 29°33' W 095°02'607712270.4
2018-Feb-19 04:30N 46°51' E 031°58'60771286944.7
2018-Feb-19 04:29N 29°33' W 095°02'607712270.4
2018-Feb-19 04:00N 46°51' E 031°58'6077475610.0
2018-Feb-19 03:59N 29°33' W 095°02'603118092.9
2018-Feb-19 03:39N 46°29' E 030°45'0 0.0
2018-Feb-19 03:30N 46°29' E 030°45'5515278.9
2018-Feb-19 03:30N 46°51' E 031°58'6077465490.7
2018-Feb-19 03:29N 29°33' W 095°02'607712480.4
2018-Feb-19 03:00N 46°51' E 031°58'55575.8
2018-Feb-19 02:54N 46°29' E 030°45'603190088.9
2018-Feb-19 02:50N 29°33' W 095°02'607718021.5
2018-Feb-19 02:30N 46°51' E 031°58'6077465491.0
2018-Feb-19 02:29N 29°33' W 095°02'6031182449.1
2018-Feb-19 02:27N 46°29' E 030°45'55121.6
2018-Feb-19 02:00N 46°51' E 031°58'6077475610.2
2018-Feb-19 01:59N 29°33' W 095°02'603145516.6
2018-Feb-19 01:51N 46°29' E 030°45'55155.5
2018-Feb-19 01:30N 46°51' E 031°58'60771286945.1
2018-Feb-19 01:29N 29°33' W 095°02'603113680.8
2018-Feb-19 01:03N 46°29' E 030°45'551013.4
2018-Feb-19 01:00N 46°51' E 031°58'55579.1
2018-Feb-19 00:54N 46°29' E 030°45'603137890.8
2018-Feb-19 00:44N 29°33' W 095°02'603125042.0
2018-Feb-19 00:30N 46°29' E 030°45'5511684.4
2018-Feb-19 00:30N 46°51' E 031°58'607729685.3
2018-Feb-19 00:17N 29°33' W 095°02'603120776.5
2018-Feb-19 00:00N 46°29' E 030°45'5511034.7
2018-Feb-19 00:00N 46°51' E 031°58'607769016.0
2018-Feb-18 23:54N 29°33' W 095°02'0 0.0
2018-Feb-18 23:30N 29°33' W 095°02'6077497229.0
2018-Feb-18 23:30N 46°51' E 031°58'551233.7
2018-Feb-18 23:27N 46°29' E 030°45'603113603.6
2018-Feb-18 23:00N 29°33' W 095°02'6077508791.7
2018-Feb-18 23:00N 46°51' E 031°58'55577.4
2018-Feb-18 22:54N 46°29' E 030°45'603115365.5
2018-Feb-18 22:30N 29°33' W 095°02'6077508792.9
2018-Feb-18 22:30N 46°51' E 031°58'55577.4
2018-Feb-18 22:24N 46°29' E 030°45'603115365.5
2018-Feb-18 22:00N 29°33' W 095°02'6077508792.5
2018-Feb-18 22:00N 46°51' E 031°58'0 0.0
2018-Feb-18 21:30N 46°51' E 031°58'6077159693.7
2018-Feb-18 21:27N 29°33' W 095°02'607713155.8
2018-Feb-18 21:00N 46°51' E 031°58'607769234.4
2018-Feb-18 20:54N 29°33' W 095°02'603129064.8
2018-Feb-18 20:42N 46°29' E 030°45'603131284.5
2018-Feb-18 20:30N 29°33' W 095°02'6077508792.1
2018-Feb-18 20:30N 46°51' E 031°58'607712452.0
2018-Feb-18 20:00N 29°33' W 095°02'6077508792.9
2018-Feb-18 20:00N 46°51' E 031°58'55159.7
2018-Feb-18 19:39N 46°29' E 030°45'603142322.5
2018-Feb-18 19:30N 29°33' W 095°02'6077508792.9
2018-Feb-18 19:30N 46°51' E 031°58'55187.0
2018-Feb-18 19:12N 46°29' E 030°45'55268.8
2018-Feb-18 19:00N 46°51' E 031°58'607744198.1
2018-Feb-18 18:51N 29°33' W 095°02'6031775407.9
2018-Feb-18 18:51N 46°29' E 030°45'551832513.4
2018-Feb-18 18:41N 25°44' W 080°09'556930193.3
2018-Feb-18 18:30N 46°51' E 031°58'6077158536.7
2018-Feb-18 18:27N 29°33' W 095°02'82330243.7
2018-Feb-18 18:26N 25°44' W 080°09'5518183941.4
2018-Feb-18 18:24N 46°29' E 030°45'55136.3
2018-Feb-18 18:00N 46°51' E 031°58'6077204468.0
2018-Feb-18 17:58N 29°33' W 095°02'603136551.2
2018-Feb-18 17:48N 46°29' E 030°45'0 0.0
2018-Feb-18 17:30N 46°29' E 030°45'555841.9
2018-Feb-18 17:30N 46°51' E 031°58'6077206396.5
2018-Feb-18 17:28N 29°33' W 095°02'607712915.0
2018-Feb-18 17:00N 46°51' E 031°58'551369.8
2018-Feb-18 16:57N 46°29' E 030°45'603131881.7
2018-Feb-18 16:46N 29°33' W 095°02'607722462.1
2018-Feb-18 16:30N 46°51' E 031°58'6077204467.9
2018-Feb-18 16:28N 29°33' W 095°02'6031586795.6
2018-Feb-18 16:27N 46°29' E 030°45'55119.9
2018-Feb-18 16:00N 46°51' E 031°58'6077204467.9
2018-Feb-18 15:58N 29°33' W 095°02'603114709.6
2018-Feb-18 15:33N 46°29' E 030°45'6031125499.3
2018-Feb-18 15:30N 29°33' W 095°02'6077497227.8
2018-Feb-18 15:30N 46°51' E 031°58'55229.6
2018-Feb-18 15:15N 46°29' E 030°45'603122806.1
2018-Feb-18 14:59N 29°33' W 095°02'6077225547.0
2018-Feb-18 14:58N 46°51' E 031°58'556620.8
2018-Feb-18 14:57N 46°29' E 030°45'552233466.9
2018-Feb-18 14:47N 25°41' W 080°11'557317707.1
2018-Feb-18 14:29N 46°51' E 031°58'5569716025.6
2018-Feb-18 14:28N 25°43' W 080°09'551813413.9
2018-Feb-18 14:03N 46°29' E 030°45'551109.6
2018-Feb-18 14:00N 46°51' E 031°58'6077377208.2
2018-Feb-18 13:59N 29°33' W 095°02'603125603.1
2018-Feb-18 13:45N 46°29' E 030°45'55222.4
2018-Feb-18 13:30N 46°51' E 031°58'607752214.7
2018-Feb-18 13:23N 29°33' W 095°02'6031172312.2
2018-Feb-18 13:21N 46°29' E 030°45'603117341.4
2018-Feb-18 13:00N 29°33' W 095°02'60775469506.9
2018-Feb-18 13:00N 46°51' E 031°58'55364.5
2018-Feb-18 12:51N 46°29' E 030°45'603115836.2
2018-Feb-18 12:28N 29°33' W 095°02'6077341844.2
2018-Feb-18 12:27N 46°51' E 031°58'5566208.5
2018-Feb-18 12:27N 46°29' E 030°45'603112513.8
2018-Feb-18 11:58N 29°33' W 095°02'6077358656.7
2018-Feb-18 11:57N 46°51' E 031°58'5533104.2
2018-Feb-18 11:57N 46°29' E 030°45'55123.1
2018-Feb-18 11:30N 46°51' E 031°58'6077183849.3
2018-Feb-18 11:28N 29°33' W 095°02'607713007.2
2018-Feb-18 11:00N 46°51' E 031°58'6077185407.4
2018-Feb-18 10:58N 29°33' W 095°02'607713007.2
2018-Feb-18 10:30N 46°51' E 031°58'607731753.4
2018-Feb-18 10:19N 29°33' W 095°02'6031101931.5
2018-Feb-18 10:15N 46°29' E 030°45'55221.4
2018-Feb-18 10:00N 46°51' E 031°58'607766701.2
2018-Feb-18 09:55N 29°33' W 095°02'603116752.6
2018-Feb-18 09:33N 46°29' E 030°45'551122.2
2018-Feb-18 09:30N 46°51' E 031°58'551091.3
2018-Feb-18 09:27N 46°29' E 030°45'603131603.3
2018-Feb-18 09:16N 29°33' W 095°02'607723499.6
2018-Feb-18 09:00N 46°51' E 031°58'551091.4
2018-Feb-18 08:57N 46°29' E 030°45'6031147697.0
2018-Feb-18 08:55N 29°33' W 095°02'607714872.9
2018-Feb-18 08:30N 46°51' E 031°58'551091.3
2018-Feb-18 08:27N 46°29' E 030°45'6031149734.3
2018-Feb-18 08:25N 29°33' W 095°02'607714852.8
2018-Feb-18 08:00N 46°51' E 031°58'607731799.5
2018-Feb-18 07:49N 29°33' W 095°02'603123245.7
2018-Feb-18 07:33N 46°29' E 030°45'551122.2
2018-Feb-18 07:30N 46°51' E 031°58'6077146832.7
2018-Feb-18 07:28N 29°33' W 095°02'603123245.7
2018-Feb-18 07:12N 46°29' E 030°45'55277.0
2018-Feb-18 07:00N 46°51' E 031°58'607766498.7
2018-Feb-18 06:55N 29°33' W 095°02'603128833.2
2018-Feb-18 06:42N 46°29' E 030°45'55276.2
2018-Feb-18 06:30N 46°51' E 031°58'6077147824.8
2018-Feb-18 06:28N 29°33' W 095°02'603138023.5
2018-Feb-18 06:18N 46°29' E 030°45'55184.1
2018-Feb-18 06:00N 46°51' E 031°58'551085.4
2018-Feb-18 05:57N 46°29' E 030°45'603152065.8
2018-Feb-18 05:50N 29°33' W 095°02'0 0.1
2018-Feb-18 05:29N 29°33' W 095°02'6077237805.8
2018-Feb-18 05:27N 46°51' E 031°58'55198652.6
2018-Feb-18 05:27N 46°29' E 030°45'55122.7
2018-Feb-18 05:00N 46°51' E 031°58'6077754416.5
2018-Feb-18 05:00N 29°33' W 095°02'603165395.9
2018-Feb-18 04:54N 46°29' E 030°45'55138.0
2018-Feb-18 04:30N 46°51' E 031°58'6077781358.9
2018-Feb-18 04:30N 29°33' W 095°02'603142322.5
2018-Feb-18 04:21N 46°29' E 030°45'55157.9
2018-Feb-18 04:00N 46°51' E 031°58'6077364633.8
2018-Feb-18 03:59N 29°33' W 095°02'6031179432.9
2018-Feb-18 03:57N 46°29' E 030°45'55122.6
2018-Feb-18 03:30N 46°51' E 031°58'551115.9
2018-Feb-18 03:27N 46°29' E 030°45'603190088.9
2018-Feb-18 03:23N 29°33' W 095°02'607715853.7
2018-Feb-18 03:00N 46°51' E 031°58'6077377208.2
2018-Feb-18 02:59N 29°33' W 095°02'603132796.7
2018-Feb-18 02:48N 46°29' E 030°45'603119045.1
2018-Feb-18 02:29N 29°33' W 095°02'6077182317.3
2018-Feb-18 02:27N 46°51' E 031°58'55198625.4
2018-Feb-18 02:27N 46°29' E 030°45'55122.7
2018-Feb-18 02:00N 46°51' E 031°58'6077364634.8
2018-Feb-18 01:59N 29°33' W 095°02'6031180928.8
2018-Feb-18 01:57N 46°29' E 030°45'0 0.0
2018-Feb-18 01:30N 46°29' E 030°45'5599312.7
2018-Feb-18 01:30N 46°51' E 031°58'607748726.2
2018-Feb-18 01:23N 29°33' W 095°02'603116106.4
2018-Feb-18 01:00N 46°29' E 030°45'5599312.7
2018-Feb-18 01:00N 46°51' E 031°58'6077243089.8
2018-Feb-18 00:59N 29°33' W 095°02'603112711.6
2018-Feb-18 00:30N 46°29' E 030°45'603110855702.1
2018-Feb-18 00:30N 29°33' W 095°02'607721878033.6
2018-Feb-18 00:30N 46°51' E 031°58'0 0.0
2018-Feb-18 00:00N 46°51' E 031°58'55276.6
2018-Feb-17 23:48N 46°29' E 030°45'6031120619.1
2018-Feb-17 23:45N 29°33' W 095°02'603124177.5
2018-Feb-17 23:30N 46°29' E 030°45'5549656.4
2018-Feb-17 23:30N 46°51' E 031°58'6077122223.9
2018-Feb-17 23:27N 29°33' W 095°02'603113427.0
2018-Feb-17 23:00N 46°29' E 030°45'5566211.3
2018-Feb-17 23:00N 46°51' E 031°58'607740514.9
2018-Feb-17 22:51N 29°33' W 095°02'603117258.7
2018-Feb-17 22:30N 46°29' E 030°45'5599312.7
2018-Feb-17 22:30N 46°51' E 031°58'607760772.5
2018-Feb-17 22:24N 29°33' W 095°02'603115119.4
2018-Feb-17 22:00N 46°29' E 030°45'60317237140.7
2018-Feb-17 22:00N 29°33' W 095°02'607721878062.7
2018-Feb-17 22:00N 46°51' E 031°58'55110.5
2018-Feb-17 21:30N 46°29' E 030°45'5599319.5
2018-Feb-17 21:30N 46°51' E 031°58'607730386.1
2018-Feb-17 21:18N 29°33' W 095°02'603120159.1
2018-Feb-17 21:00N 46°29' E 030°45'5549656.4
2018-Feb-17 21:00N 46°51' E 031°58'6077122910.6
2018-Feb-17 20:57N 29°33' W 095°02'603113435.3
2018-Feb-17 20:31N 46°29' E 030°45'60315427859.4
2018-Feb-17 20:30N 29°33' W 095°02'607721878077.9
2018-Feb-17 20:30N 46°51' E 031°58'55110.5
2018-Feb-17 20:00N 46°29' E 030°45'5549658.5
2018-Feb-17 20:00N 46°51' E 031°58'607730428.4
2018-Feb-17 19:48N 29°33' W 095°02'603120177.9
2018-Feb-17 19:30N 46°29' E 030°45'6031117997.1
2018-Feb-17 19:27N 29°33' W 095°02'607721878112.9
2018-Feb-17 19:27N 46°51' E 031°58'55123.0
2018-Feb-17 19:00N 46°29' E 030°45'5539726.8
2018-Feb-17 19:00N 46°51' E 031°58'607717377.3
2018-Feb-17 18:39N 29°33' W 095°02'603140506.3
2018-Feb-17 18:30N 46°29' E 030°45'5539723.3
2018-Feb-17 18:30N 46°51' E 031°58'6077122223.8
2018-Feb-17 18:27N 29°33' W 095°02'0 0.0
2018-Feb-17 18:00N 29°33' W 095°02'6031151828.0
2018-Feb-17 17:58N 46°29' E 030°45'5522069.5
2018-Feb-17 17:57N 46°51' E 031°58'55123.0
2018-Feb-17 17:30N 46°29' E 030°45'5549656.4
2018-Feb-17 17:30N 46°51' E 031°58'6077729268.1
2018-Feb-17 17:30N 29°33' W 095°02'603112308.1
2018-Feb-17 17:01N 46°29' E 030°45'5528375.1
2018-Feb-17 17:00N 46°51' E 031°58'607756241.8
2018-Feb-17 16:54N 29°33' W 095°02'603115453.0
2018-Feb-17 16:31N 46°29' E 030°45'5533105.6
2018-Feb-17 16:30N 46°51' E 031°58'6077810299.5
2018-Feb-17 16:30N 29°33' W 095°02'603112294.1
2018-Feb-17 16:01N 46°29' E 030°45'5528375.1
2018-Feb-17 16:00N 46°51' E 031°58'6077105691.1
2018-Feb-17 15:57N 29°33' W 095°02'607713742.5
2018-Feb-17 15:30N 46°51' E 031°58'6077781358.7
2018-Feb-17 15:30N 29°33' W 095°02'60311033875.5
2018-Feb-17 15:30N 46°29' E 030°45'56114.1
2018-Feb-17 15:00N 46°52' E 031°59'564252.7
2018-Feb-17 15:00N 46°29' E 030°45'6031134853.6
2018-Feb-17 14:57N 29°33' W 095°02'607813406.4
2018-Feb-17 14:30N 46°51' E 031°59'5614284.8
2018-Feb-17 14:30N 46°29' E 030°45'6031140983.4
2018-Feb-17 14:27N 29°33' W 095°02'607713438.6
2018-Feb-17 14:00N 46°51' E 031°58'5510454.4
2018-Feb-17 13:59N 46°29' E 030°45'6031140983.6
2018-Feb-17 13:57N 29°33' W 095°02'607713455.2
2018-Feb-17 13:30N 46°51' E 031°58'5510454.0
2018-Feb-17 13:30N 46°29' E 030°45'6031100515.8
2018-Feb-17 13:26N 29°33' W 095°02'0 0.0
2018-Feb-17 13:00N 29°33' W 095°02'60773646346.1
2018-Feb-17 13:00N 46°51' E 031°58'5510454.0
2018-Feb-17 13:00N 46°29' E 030°45'55111.5
2018-Feb-17 12:30N 46°51' E 031°58'5511035.5
2018-Feb-17 12:30N 46°29' E 030°45'6031100983.4
2018-Feb-17 12:26N 29°33' W 095°02'607713970.7
2018-Feb-17 12:00N 46°51' E 031°58'5511034.7
2018-Feb-17 12:00N 46°29' E 030°45'603154688.8
2018-Feb-17 11:53N 29°33' W 095°02'607715785.1
2018-Feb-17 11:30N 46°51' E 031°58'5511683.8
2018-Feb-17 11:30N 46°29' E 030°45'6031603095.0
2018-Feb-17 11:29N 29°33' W 095°02'607712530.4
2018-Feb-17 11:00N 46°51' E 031°58'6077107245.5
2018-Feb-17 10:56N 29°33' W 095°02'603178098.6
2018-Feb-17 10:52N 46°29' E 030°45'55150.7
2018-Feb-17 10:30N 46°51' E 031°58'6077875122.4
2018-Feb-17 10:29N 29°33' W 095°02'6031221544.9
2018-Feb-17 10:28N 46°29' E 030°45'55118.4
2018-Feb-17 10:00N 46°51' E 031°58'6077911584.4
2018-Feb-17 09:59N 29°33' W 095°02'6031219306.9
2018-Feb-17 09:58N 46°29' E 030°45'603113000.8
2018-Feb-17 09:30N 29°33' W 095°02'60773125433.4
2018-Feb-17 09:30N 46°51' E 031°58'55653.4
2018-Feb-17 09:25N 46°29' E 030°45'55132.8
2018-Feb-17 09:00N 46°51' E 031°58'6077257389.4
2018-Feb-17 08:58N 29°33' W 095°02'6031556703.4
2018-Feb-17 08:58N 46°29' E 030°45'55118.5
2018-Feb-17 08:30N 46°51' E 031°58'6077412794.6
2018-Feb-17 08:29N 29°33' W 095°02'6031305795.4
2018-Feb-17 08:28N 46°29' E 030°45'55118.4
2018-Feb-17 08:00N 46°51' E 031°58'552364.7
2018-Feb-17 07:58N 46°29' E 030°45'603190464.4
2018-Feb-17 07:54N 29°33' W 095°02'0 0.0
2018-Feb-17 07:30N 29°33' W 095°02'6077607724.9
2018-Feb-17 07:30N 46°51' E 031°58'552393.1
2018-Feb-17 07:28N 46°29' E 030°45'55115.6
2018-Feb-17 07:00N 46°51' E 031°58'552393.1
2018-Feb-17 06:58N 46°29' E 030°45'603127870.9
2018-Feb-17 06:45N 29°33' W 095°02'0 0.0
2018-Feb-17 06:30N 29°33' W 095°02'6077625087.2
2018-Feb-17 06:30N 46°51' E 031°58'552364.7
2018-Feb-17 06:28N 46°29' E 030°45'1 1.2
2018-Feb-17 06:00N 46°30' E 030°45'5516420.8
2018-Feb-17 06:00N 46°51' E 031°58'6077397783.0
2018-Feb-17 05:59N 29°33' W 095°02'603312546.7
2018-Feb-17 05:30N 46°31' E 030°48'60332413147.6
2018-Feb-17 05:30N 29°33' W 095°02'60773646353.1
2018-Feb-17 05:30N 46°51' E 031°58'51103.1
2018-Feb-17 05:00N 46°31' E 030°50'5112270.9
2018-Feb-17 05:00N 46°51' E 031°58'607761802.4
2018-Feb-17 04:54N 29°33' W 095°02'603715197.8
2018-Feb-17 04:30N 46°30' E 030°53'5012020.0
2018-Feb-17 04:30N 46°51' E 031°58'6077397782.1
2018-Feb-17 04:29N 29°33' W 095°02'603912589.0
2018-Feb-17 04:00N 46°29' E 030°55'499275.7
2018-Feb-17 04:00N 46°51' E 031°58'607733452.7
2018-Feb-17 03:49N 29°33' W 095°02'0 0.0
2018-Feb-17 03:30N 29°33' W 095°02'60774375612.2
2018-Feb-17 03:30N 46°51' E 031°58'607712188.3
2018-Feb-17 03:00N 29°33' W 095°02'60774375615.6
2018-Feb-17 03:00N 46°51' E 031°58'0 0.0
2018-Feb-17 02:30N 46°51' E 031°58'607730684.6
2018-Feb-17 02:18N 29°33' W 095°02'607720145.6
2018-Feb-17 02:00N 46°51' E 031°58'607749386.2
2018-Feb-17 01:52N 29°33' W 095°02'607716122.4
2018-Feb-17 01:30N 46°51' E 031°58'6077257389.2
2018-Feb-17 01:28N 29°33' W 095°02'607712756.9
2018-Feb-17 01:00N 46°51' E 031°58'607749164.2
2018-Feb-17 00:52N 29°33' W 095°02'607716146.2
2018-Feb-17 00:30N 46°51' E 031°58'6077911585.4
2018-Feb-17 00:29N 29°33' W 095°02'607712311.8
2018-Feb-17 00:00N 46°51' E 031°58'6077951220.8
2018-Feb-16 23:59N 29°33' W 095°02'607712318.7
2018-Feb-16 23:30N 46°51' E 031°58'6077107773.8
2018-Feb-16 23:26N 29°33' W 095°02'607713690.9
2018-Feb-16 23:00N 46°51' E 031°58'607757272.4
2018-Feb-16 22:53N 29°33' W 095°02'607715439.7
2018-Feb-16 22:30N 46°51' E 031°58'6077106722.4
2018-Feb-16 22:26N 29°33' W 095°02'607713708.1
2018-Feb-16 22:00N 46°51' E 031°58'6077951218.7
2018-Feb-16 21:59N 29°33' W 095°02'607712311.8
2018-Feb-16 21:30N 46°51' E 031°58'0 0.0
2018-Feb-16 21:00N 46°51' E 031°58'607757122.9
2018-Feb-16 20:53N 29°33' W 095°02'607715439.7
2018-Feb-16 20:30N 46°51' E 031°58'607738722.3
2018-Feb-16 20:20N 29°33' W 095°02'607717700.7
2018-Feb-16 20:00N 46°51' E 031°58'6077994457.3
2018-Feb-16 19:59N 29°33' W 095°02'607712311.8
2018-Feb-16 19:30N 46°51' E 031°58'6077875123.8
2018-Feb-16 19:29N 29°33' W 095°02'607712325.7
2018-Feb-16 19:00N 46°51' E 031°58'0 0.0
2018-Feb-16 18:30N 46°51' E 031°58'0 0.0
2018-Feb-16 18:00N 46°51' E 031°58'0 0.0
2018-Feb-16 17:30N 46°51' E 031°58'0 0.0
2018-Feb-16 17:00N 46°51' E 031°58'0 0.0
2018-Feb-16 16:24N 46°51' E 031°58'0 0.0
2018-Feb-16 16:00N 46°51' E 031°58'0 0.0
2018-Feb-16 15:30N 46°51' E 031°58'0 0.0
2018-Feb-16 15:00N 46°51' E 031°58'0 0.0
2018-Feb-16 14:30N 46°51' E 031°58'0 0.0
2018-Feb-16 14:00N 46°51' E 031°58'0 0.0
2018-Feb-16 13:30N 46°51' E 031°58'53162.3
2018-Feb-16 13:10N 46°22' E 030°53'53313.2
2018-Feb-16 13:00N 46°51' E 031°58'0 0.0
2018-Feb-16 12:30N 46°51' E 031°58'54159.3
2018-Feb-16 12:10N 46°25' E 030°50'54328.6
2018-Feb-16 12:00N 46°51' E 031°58'531209.2
2018-Feb-16 11:57N 46°26' E 030°50'53117.2
2018-Feb-16 11:30N 46°51' E 031°58'532790.0
2018-Feb-16 11:29N 46°28' E 030°48'53111.2
2018-Feb-16 11:00N 46°51' E 031°58'545403.4
2018-Feb-16 10:59N 46°30' E 030°46'54110.3
2018-Feb-16 10:30N 46°51' E 031°58'5566189.1
2018-Feb-16 10:30N 46°29' E 030°45'0 0.0
2018-Feb-16 10:00N 46°29' E 030°45'5518058.9
2018-Feb-16 10:00N 46°51' E 031°58'0 0.0
2018-Feb-16 09:30N 46°51' E 031°58'551182.3
2018-Feb-16 09:27N 46°29' E 030°45'55121.6
2018-Feb-16 09:00N 46°51' E 031°58'554226.2
2018-Feb-16 08:59N 46°29' E 030°45'0 0.0
2018-Feb-16 08:30N 46°29' E 030°45'5518057.3
2018-Feb-16 08:30N 46°51' E 031°58'55111.1
2018-Feb-16 08:00N 46°29' E 030°45'5516552.5
2018-Feb-16 08:00N 46°51' E 031°58'0 0.0
2018-Feb-16 07:30N 46°51' E 031°58'554053.7
2018-Feb-16 07:29N 46°29' E 030°45'55113.4
2018-Feb-16 07:00N 46°51' E 031°58'554226.2
2018-Feb-16 06:59N 46°29' E 030°45'55113.3
2018-Feb-16 06:30N 46°51' E 031°58'554226.4
2018-Feb-16 06:29N 46°29' E 030°45'55113.3
2018-Feb-16 06:00N 46°51' E 031°58'55871.2
2018-Feb-16 05:56N 46°29' E 030°45'55126.4
2018-Feb-16 05:30N 46°51' E 031°58'551418.9
2018-Feb-16 05:27N 46°29' E 030°45'0 0.0
2018-Feb-16 05:00N 46°29' E 030°45'55348.5
2018-Feb-16 04:51N 46°51' E 031°58'0 0.0
2018-Feb-16 04:30N 46°51' E 031°58'551342.2
2018-Feb-16 04:27N 46°29' E 030°45'0 0.0
2018-Feb-16 04:00N 46°29' E 030°45'556621.0
2018-Feb-16 04:00N 46°51' E 031°58'55112.5
2018-Feb-16 03:30N 46°29' E 030°45'555842.1
2018-Feb-16 03:30N 46°51' E 031°58'55112.5
2018-Feb-16 03:00N 46°29' E 030°45'556019.1
2018-Feb-16 03:00N 46°51' E 031°58'55112.4
2018-Feb-16 02:30N 46°29' E 030°45'555842.1
2018-Feb-16 02:30N 46°51' E 031°58'55112.6
2018-Feb-16 02:00N 46°29' E 030°45'555517.8
2018-Feb-16 02:00N 46°51' E 031°58'0 0.0
2018-Feb-16 01:30N 46°51' E 031°58'55609.3
2018-Feb-16 01:24N 46°29' E 030°45'0 0.0
2018-Feb-16 01:00N 46°29' E 030°45'555842.1
2018-Feb-16 01:00N 46°51' E 031°58'0 0.0
2018-Feb-16 00:30N 46°51' E 031°58'551389.1
2018-Feb-16 00:27N 46°29' E 030°45'55119.9
2018-Feb-16 00:00N 46°51' E 031°58'551379.4
2018-Feb-15 23:57N 46°29' E 030°45'55119.9
2018-Feb-15 23:30N 46°51' E 031°58'55290.8
2018-Feb-15 23:18N 46°29' E 030°45'0 0.0
2018-Feb-15 23:00N 46°29' E 030°45'555675.2
2018-Feb-15 23:00N 46°51' E 031°58'55112.6
2018-Feb-15 22:30N 46°29' E 030°45'555368.4
2018-Feb-15 22:30N 46°51' E 031°58'55112.7
2018-Feb-15 22:00N 46°29' E 030°45'555517.5
2018-Feb-15 22:00N 46°51' E 031°58'55112.6
2018-Feb-15 21:30N 46°29' E 030°45'555517.5
2018-Feb-15 21:30N 46°51' E 031°58'0 0.0
2018-Feb-15 21:00N 46°51' E 031°58'551389.0
2018-Feb-15 20:57N 46°29' E 030°45'55119.9
2018-Feb-15 20:30N 46°51' E 031°58'55615.0
2018-Feb-15 20:24N 46°29' E 030°45'0 0.0
2018-Feb-15 20:00N 46°29' E 030°45'555093.3
2018-Feb-15 20:00N 46°51' E 031°58'55112.7
2018-Feb-15 19:30N 46°29' E 030°45'555227.3
2018-Feb-15 19:30N 46°51' E 031°58'607728193.4
2018-Feb-15 19:17N 29°33' W 095°02'607721386.2
2018-Feb-15 19:00N 46°51' E 031°58'6077185407.3
2018-Feb-15 18:58N 29°33' W 095°02'6031943974.8
2018-Feb-15 18:57N 46°29' E 030°45'0 0.0
2018-Feb-15 18:30N 46°29' E 030°45'60314342282.3
2018-Feb-15 18:30N 29°33' W 095°02'6077662972.1
2018-Feb-15 18:30N 46°51' E 031°58'55112.8
2018-Feb-15 18:00N 46°29' E 030°45'554965.8
2018-Feb-15 18:00N 46°51' E 031°58'607730641.5
2018-Feb-15 17:48N 29°33' W 095°02'603120796.3
2018-Feb-15 17:31N 46°29' E 030°45'554844.8
2018-Feb-15 17:30N 46°51' E 031°58'55112.8
2018-Feb-15 17:00N 46°29' E 030°45'555093.3
2018-Feb-15 17:00N 46°51' E 031°58'607740665.6
2018-Feb-15 16:51N 29°33' W 095°02'607717336.1
2018-Feb-15 16:30N 46°51' E 031°58'551408.8
2018-Feb-15 16:27N 46°29' E 030°45'603132747.2
2018-Feb-15 16:16N 29°33' W 095°02'603122687.0
2018-Feb-15 16:00N 46°29' E 030°45'555093.3
2018-Feb-15 16:00N 46°51' E 031°58'607738517.7
2018-Feb-15 15:50N 29°33' W 095°02'603118260.2
2018-Feb-15 15:31N 46°29' E 030°45'554619.3
2018-Feb-15 15:30N 46°51' E 031°58'6077781360.5
2018-Feb-15 15:29N 29°33' W 095°02'603112542.7
2018-Feb-15 15:01N 46°29' E 030°45'554729.7
2018-Feb-15 15:00N 46°51' E 031°58'607723626.4
2018-Feb-15 14:44N 29°33' W 095°02'603126064.2
2018-Feb-15 14:30N 46°29' E 030°45'554844.9
2018-Feb-15 14:30N 46°51' E 031°58'55112.9
2018-Feb-15 14:00N 46°29' E 030°45'554965.8
2018-Feb-15 14:00N 46°51' E 031°58'6077781359.9
2018-Feb-15 13:59N 29°33' W 095°02'603112535.5
2018-Feb-15 13:30N 46°29' E 030°45'554844.6
2018-Feb-15 13:30N 46°51' E 031°58'607746059.1
2018-Feb-15 13:22N 29°33' W 095°02'607716511.7
2018-Feb-15 13:00N 46°51' E 031°58'551460.6
2018-Feb-15 12:58N 46°29' E 030°45'6031571352.4
2018-Feb-15 12:57N 29°33' W 095°02'603113706.7
2018-Feb-15 12:31N 46°29' E 030°45'554729.7
2018-Feb-15 12:30N 46°51' E 031°58'607792312.5
2018-Feb-15 12:26N 29°33' W 095°02'603114274.4
2018-Feb-15 12:01N 46°29' E 030°45'554844.6
2018-Feb-15 12:00N 46°51' E 031°58'607722861.1
2018-Feb-15 11:44N 29°33' W 095°02'603127105.4
2018-Feb-15 11:31N 46°29' E 030°45'554619.3
2018-Feb-15 11:30N 46°51' E 031°58'607728229.8
2018-Feb-15 11:17N 29°33' W 095°02'607721344.5
2018-Feb-15 11:00N 46°51' E 031°58'6077810298.6
2018-Feb-15 10:59N 29°33' W 095°02'6031199187.2
2018-Feb-15 10:58N 46°29' E 030°45'603113319.9
2018-Feb-15 10:30N 29°33' W 095°02'6077662971.0
2018-Feb-15 10:30N 46°51' E 031°58'551449.9
2018-Feb-15 10:28N 46°29' E 030°45'603113311.7
2018-Feb-15 10:00N 29°33' W 095°02'6077683689.1
2018-Feb-15 10:00N 46°51' E 031°58'551449.9
2018-Feb-15 09:58N 46°29' E 030°45'55119.4
2018-Feb-15 09:30N 46°51' E 031°58'551460.5
2018-Feb-15 09:28N 46°29' E 030°45'60312171144.4
2018-Feb-15 09:27N 29°33' W 095°02'607713227.4
2018-Feb-15 09:00N 46°51' E 031°58'551460.5
2018-Feb-15 08:58N 46°29' E 030°45'60311973768.0
2018-Feb-15 08:57N 29°33' W 095°02'607713235.4
2018-Feb-15 08:30N 46°51' E 031°58'551493.5
2018-Feb-15 08:28N 46°29' E 030°45'55119.2
2018-Feb-15 08:00N 46°51' E 031°58'551493.5
2018-Feb-15 07:58N 46°29' E 030°45'603129620.0
2018-Feb-15 07:45N 29°33' W 095°02'607723424.1
2018-Feb-15 07:30N 46°51' E 031°58'551482.4
2018-Feb-15 07:28N 46°29' E 030°45'55119.2
2018-Feb-15 07:00N 46°51' E 031°58'55401.3
2018-Feb-15 06:52N 46°29' E 030°45'603113544.2
2018-Feb-15 06:25N 29°33' W 095°02'60311277142.9
2018-Feb-15 06:25N 46°29' E 030°45'554514.3
2018-Feb-15 06:24N 46°51' E 031°58'607715527.4
2018-Feb-15 06:00N 29°33' W 095°02'6077683688.9
2018-Feb-15 06:00N 46°51' E 031°58'551482.3
2018-Feb-15 05:58N 46°29' E 030°45'55119.2
2018-Feb-15 05:30N 46°51' E 031°58'55632.6
2018-Feb-15 05:25N 46°29' E 030°45'603117884.2
2018-Feb-15 05:04N 29°33' W 095°02'607780434.0
2018-Feb-15 05:00N 46°51' E 031°58'607781634.6
2018-Feb-15 04:55N 29°33' W 095°02'6031482475.4
2018-Feb-15 04:55N 46°29' E 030°45'55133.6
2018-Feb-15 04:30N 46°51' E 031°58'551482.4
2018-Feb-15 04:28N 46°29' E 030°45'603123023.7
2018-Feb-15 04:12N 29°33' W 095°02'0 0.1
2018-Feb-15 04:00N 29°33' W 095°02'6077683689.9
2018-Feb-15 04:00N 46°51' E 031°58'55634.6
2018-Feb-15 03:55N 46°29' E 030°45'55133.6
2018-Feb-15 03:30N 46°51' E 031°58'551493.5
2018-Feb-15 03:28N 46°29' E 030°45'603117041.9
2018-Feb-15 03:06N 29°33' W 095°02'0 0.0
2018-Feb-15 03:00N 29°33' W 095°02'6077705743.9
2018-Feb-15 03:00N 46°51' E 031°58'551493.5
2018-Feb-15 02:58N 46°29' E 030°45'55119.2
2018-Feb-15 02:30N 46°51' E 031°58'551504.8
2018-Feb-15 02:28N 46°29' E 030°45'603157743.1
2018-Feb-15 02:21N 29°33' W 095°02'0 0.0
2018-Feb-15 02:00N 29°33' W 095°02'6077643473.4
2018-Feb-15 02:00N 46°51' E 031°58'55634.6
2018-Feb-15 01:55N 46°29' E 030°45'55133.6
2018-Feb-15 01:30N 46°51' E 031°58'6077183849.2
2018-Feb-15 01:28N 29°33' W 095°02'6031112494.3
2018-Feb-15 01:25N 46°29' E 030°45'55133.4
2018-Feb-15 01:00N 46°51' E 031°58'6077185407.1
2018-Feb-15 00:58N 29°33' W 095°02'60311550812.6
2018-Feb-15 00:58N 46°29' E 030°45'55119.2
2018-Feb-15 00:30N 46°51' E 031°58'551504.8
2018-Feb-15 00:28N 46°29' E 030°45'603153344.9
2018-Feb-15 00:21N 29°33' W 095°02'607717349.7
2018-Feb-15 00:00N 46°51' E 031°58'551504.8
2018-Feb-14 23:58N 46°29' E 030°45'603153345.0
2018-Feb-14 23:51N 29°33' W 095°02'607717336.0
2018-Feb-14 23:30N 46°51' E 031°58'551551.9
2018-Feb-14 23:28N 46°29' E 030°45'603113008.6
2018-Feb-14 23:00N 29°33' W 095°02'60777292687.1
2018-Feb-14 23:00N 46°51' E 031°58'551527.9
2018-Feb-14 22:58N 46°29' E 030°45'603113024.3
2018-Feb-14 22:30N 29°33' W 095°02'60777292704.3
2018-Feb-14 22:30N 46°51' E 031°58'55644.9
2018-Feb-14 22:25N 46°29' E 030°45'55133.1
2018-Feb-14 22:00N 46°51' E 031°58'551539.8
2018-Feb-14 21:58N 46°29' E 030°45'6031452321.0
2018-Feb-14 21:57N 29°33' W 095°02'607713480.0
2018-Feb-14 21:30N 46°51' E 031°58'6077781358.1
2018-Feb-14 21:29N 29°33' W 095°02'6031214964.0
2018-Feb-14 21:28N 46°29' E 030°45'55118.9
2018-Feb-14 21:00N 46°51' E 031°58'55407.0
2018-Feb-14 20:52N 46°29' E 030°45'6031271392.4
2018-Feb-14 20:50N 29°33' W 095°02'607717772.6
2018-Feb-14 20:30N 46°51' E 031°58'551527.9
2018-Feb-14 20:28N 46°29' E 030°45'603184152.8
2018-Feb-14 20:23N 29°33' W 095°02'607715483.4
2018-Feb-14 20:00N 46°51' E 031°58'551551.8
2018-Feb-14 19:58N 46°29' E 030°45'603157286.1
2018-Feb-14 19:51N 29°33' W 095°02'607716933.5
2018-Feb-14 19:30N 46°51' E 031°58'551539.8
2018-Feb-14 19:28N 46°29' E 030°45'603119737.6
2018-Feb-14 19:09N 29°33' W 095°02'607738315.3
2018-Feb-14 19:00N 46°51' E 031°58'55644.9
2018-Feb-14 18:55N 46°29' E 030°45'60311033875.8
2018-Feb-14 18:54N 29°33' W 095°02'0 0.0
2018-Feb-14 18:30N 29°33' W 095°02'6077683689.9
2018-Feb-14 18:30N 46°51' E 031°58'55299.1
2018-Feb-14 18:19N 46°29' E 030°45'55174.9
2018-Feb-14 18:00N 46°51' E 031°58'551564.0
2018-Feb-14 17:58N 46°29' E 030°45'55118.7
2018-Feb-14 17:30N 46°51' E 031°58'55297.8
2018-Feb-14 17:19N 46°29' E 030°45'55175.5
2018-Feb-14 17:00N 46°51' E 031°58'6077729269.9
2018-Feb-14 16:59N 29°33' W 095°02'6031223829.2
2018-Feb-14 16:58N 46°29' E 030°45'55118.7
2018-Feb-14 16:30N 46°51' E 031°58'551564.0
2018-Feb-14 16:28N 46°29' E 030°45'603125158.0
2018-Feb-14 16:13N 29°33' W 095°02'607727009.9
2018-Feb-14 16:00N 46°51' E 031°58'607752215.0
2018-Feb-14 15:53N 29°33' W 095°02'6031319285.4
2018-Feb-14 15:52N 46°29' E 030°45'55151.2
2018-Feb-14 15:30N 46°51' E 031°58'607792312.5
2018-Feb-14 15:26N 29°33' W 095°02'603127552.6
2018-Feb-14 15:13N 46°29' E 030°45'55256.3
2018-Feb-14 15:00N 46°51' E 031°58'551576.4
2018-Feb-14 14:58N 46°29' E 030°45'55118.7
2018-Feb-14 14:30N 46°51' E 031°58'55655.5
2018-Feb-14 14:25N 46°29' E 030°45'55132.8
2018-Feb-14 14:00N 46°51' E 031°58'5513242.0
2018-Feb-14 14:00N 46°29' E 030°45'55111.2
2018-Feb-14 13:30N 46°51' E 031°58'5515279.9
2018-Feb-14 13:30N 46°29' E 030°45'55111.2
2018-Feb-14 13:00N 46°51' E 031°58'551008.3
2018-Feb-14 12:57N 46°29' E 030°45'55123.8
2018-Feb-14 12:30N 46°51' E 031°58'5515279.3
2018-Feb-14 12:30N 46°29' E 030°45'0 0.0
2018-Feb-14 12:00N 46°29' E 030°45'603115098.3
2018-Feb-14 11:36N 29°33' W 095°02'607760603.9
2018-Feb-14 11:30N 46°51' E 031°58'551109.7
2018-Feb-14 11:27N 46°29' E 030°45'55122.5
2018-Feb-14 11:00N 46°51' E 031°58'607712353.5
2018-Feb-14 10:30N 29°33' W 095°02'6077729267.0
2018-Feb-14 10:30N 46°51' E 031°58'55553.3
2018-Feb-14 10:24N 46°29' E 030°45'0 0.0
2018-Feb-14 10:00N 46°29' E 030°45'559931.5
2018-Feb-14 10:00N 46°51' E 031°58'6077754415.9
2018-Feb-14 09:59N 29°33' W 095°02'603112399.4
2018-Feb-14 09:30N 46°29' E 030°45'559932.0
2018-Feb-14 09:30N 46°51' E 031°58'607716986.1
2018-Feb-14 09:08N 29°33' W 095°02'603144128.9
2018-Feb-14 09:00N 46°29' E 030°45'559931.5
2018-Feb-14 09:00N 46°51' E 031°58'607718247.0
2018-Feb-14 08:40N 29°33' W 095°02'603137369.1
2018-Feb-14 08:30N 46°29' E 030°45'5510454.7
2018-Feb-14 08:30N 46°51' E 031°58'6077370815.0
2018-Feb-14 08:29N 29°33' W 095°02'607712559.2
2018-Feb-14 08:00N 46°51' E 031°58'55298.2
2018-Feb-14 07:49N 46°29' E 030°45'603145804.7
2018-Feb-14 07:41N 29°33' W 095°02'607733148.6
2018-Feb-14 07:30N 46°51' E 031°58'551589.0
2018-Feb-14 07:28N 46°29' E 030°45'603181929.8
2018-Feb-14 07:23N 29°33' W 095°02'607715516.3
2018-Feb-14 07:00N 46°51' E 031°58'6077183849.3
2018-Feb-14 06:58N 29°33' W 095°02'60315427852.5
2018-Feb-14 06:58N 46°29' E 030°45'55118.4
2018-Feb-14 06:30N 46°51' E 031°58'551614.9
2018-Feb-14 06:28N 46°29' E 030°45'603173349.4
2018-Feb-14 06:23N 29°33' W 095°02'607715842.2
2018-Feb-14 06:00N 46°51' E 031°58'55657.7
2018-Feb-14 05:55N 46°29' E 030°45'603160646.4
2018-Feb-14 05:49N 29°33' W 095°02'607719208.2
2018-Feb-14 05:30N 46°51' E 031°58'551614.9
2018-Feb-14 05:28N 46°29' E 030°45'603181622.0
2018-Feb-14 05:23N 29°33' W 095°02'607715505.4
2018-Feb-14 05:00N 46°51' E 031°58'559458.6
2018-Feb-14 04:59N 46°29' E 030°45'55111.7
2018-Feb-14 04:30N 46°51' E 031°58'55993.2
2018-Feb-14 04:26N 46°29' E 030°45'603113837.7
2018-Feb-14 04:00N 29°33' W 095°02'6077705744.1
2018-Feb-14 04:00N 46°51' E 031°58'5510454.7
2018-Feb-14 04:00N 46°29' E 030°45'55111.5
2018-Feb-14 03:30N 46°51' E 031°58'5511685.1
2018-Feb-14 03:30N 46°29' E 030°45'603150257.9
2018-Feb-14 03:22N 29°33' W 095°02'607716194.0
2018-Feb-14 03:00N 46°51' E 031°58'5510454.2
2018-Feb-14 02:59N 46°29' E 030°45'603135534.2
2018-Feb-14 02:49N 29°33' W 095°02'607718699.2
2018-Feb-14 02:30N 46°51' E 031°58'5511035.5
2018-Feb-14 02:30N 46°29' E 030°45'603186499.8
2018-Feb-14 02:25N 29°33' W 095°02'607714299.4
2018-Feb-14 02:00N 46°51' E 031°58'5510454.7
2018-Feb-14 02:00N 46°29' E 030°45'603135476.2
2018-Feb-14 01:49N 29°33' W 095°02'607718699.2
2018-Feb-14 01:30N 46°51' E 031°58'551023.9
2018-Feb-14 01:27N 46°29' E 030°45'603168706.8
2018-Feb-14 01:21N 29°33' W 095°02'607716959.7
2018-Feb-14 01:00N 46°51' E 031°58'5514188.5
2018-Feb-14 01:00N 46°29' E 030°45'603153476.4
2018-Feb-14 00:53N 29°33' W 095°02'607715865.2
2018-Feb-14 00:30N 46°51' E 031°58'5513242.0
2018-Feb-14 00:30N 46°29' E 030°45'603157743.1
2018-Feb-14 00:23N 29°33' W 095°02'607715516.4
2018-Feb-14 00:00N 46°51' E 031°58'5514188.5
2018-Feb-14 00:00N 46°29' E 030°45'603119827.8
2018-Feb-13 23:41N 29°33' W 095°02'607731707.4
2018-Feb-13 23:30N 46°51' E 031°58'5511684.1
2018-Feb-13 23:30N 46°29' E 030°45'603129619.9
2018-Feb-13 23:17N 29°33' W 095°02'607720836.2
2018-Feb-13 23:00N 46°51' E 031°58'5512414.9
2018-Feb-13 23:00N 46°29' E 030°45'6031110772.6
2018-Feb-13 22:56N 29°33' W 095°02'607713768.5
2018-Feb-13 22:30N 46°51' E 031°58'5514187.9
2018-Feb-13 22:30N 46°29' E 030°45'60311356963.1
2018-Feb-13 22:29N 29°33' W 095°02'0 0.0
2018-Feb-13 22:00N 29°33' W 095°02'6077683688.9
2018-Feb-13 22:00N 46°51' E 031°58'551018.6
2018-Feb-13 21:57N 46°29' E 030°45'55123.8
2018-Feb-13 21:30N 46°51' E 031°58'5513242.0
2018-Feb-13 21:30N 46°29' E 030°45'603124505.0
2018-Feb-13 21:15N 29°33' W 095°02'607724308.9
2018-Feb-13 21:00N 46°51' E 031°58'5513242.6
2018-Feb-13 21:00N 46°29' E 030°45'603120405.5
2018-Feb-13 20:42N 29°33' W 095°02'607730344.1
2018-Feb-13 20:30N 46°51' E 031°58'5514187.9
2018-Feb-13 20:30N 46°29' E 030°45'603162749.8
2018-Feb-13 20:24N 29°33' W 095°02'607715193.1
2018-Feb-13 20:00N 46°51' E 031°58'5516553.2
2018-Feb-13 20:00N 46°29' E 030°45'6031443090.4
2018-Feb-13 19:59N 29°33' W 095°02'607712580.8
2018-Feb-13 19:30N 46°51' E 031°58'5514186.9
2018-Feb-13 19:30N 46°29' E 030°45'60311356964.3
2018-Feb-13 19:29N 29°33' W 095°02'607712360.5
2018-Feb-13 19:00N 46°51' E 031°58'5515279.3
2018-Feb-13 19:00N 46°29' E 030°45'6031110772.5
2018-Feb-13 18:56N 29°33' W 095°02'607713759.8
2018-Feb-13 18:30N 46°51' E 031°58'5516553.2
2018-Feb-13 18:30N 46°29' E 030°45'603136861.4
2018-Feb-13 18:20N 29°33' W 095°02'0 0.0
2018-Feb-13 18:00N 29°33' W 095°02'6077729269.3
2018-Feb-13 18:00N 46°51' E 031°58'5514187.9
2018-Feb-13 18:00N 46°29' E 030°45'55111.2
2018-Feb-13 17:30N 46°51' E 031°58'6077145853.7
2018-Feb-13 17:27N 29°33' W 095°02'6031137413.9
2018-Feb-13 17:25N 46°29' E 030°45'55133.1
2018-Feb-13 17:00N 46°51' E 031°58'551527.9
2018-Feb-13 16:58N 46°29' E 030°45'603129339.7
2018-Feb-13 16:45N 29°33' W 095°02'603123832.5
2018-Feb-13 16:30N 46°29' E 030°45'5511035.0
2018-Feb-13 16:30N 46°51' E 031°58'607745484.6
2018-Feb-13 16:22N 29°33' W 095°02'603116765.8
2018-Feb-13 16:00N 46°30' E 030°45'558244.9
2018-Feb-13 16:00N 46°51' E 031°58'607765897.7
2018-Feb-13 15:54N 29°33' W 095°02'607714893.2
2018-Feb-13 15:30N 46°51' E 031°58'5348076.9
2018-Feb-13 15:30N 46°30' E 030°47'603356119.6
2018-Feb-13 15:23N 29°33' W 095°02'607715538.4
2018-Feb-13 15:00N 46°51' E 031°58'5246466.9
2018-Feb-13 15:00N 46°29' E 030°51'6036104973.9
2018-Feb-13 14:56N 29°33' W 095°02'607713759.8
2018-Feb-13 14:30N 46°51' E 031°58'5118394.7
2018-Feb-13 14:30N 46°28' E 030°52'603729369.5
2018-Feb-13 14:17N 29°33' W 095°02'607720836.3
2018-Feb-13 14:00N 46°51' E 031°58'51650.8
2018-Feb-13 13:55N 46°28' E 030°52'6037157492.9
2018-Feb-13 13:53N 29°33' W 095°02'607715865.2
2018-Feb-13 13:30N 46°51' E 031°58'6077143934.5
2018-Feb-13 13:27N 29°33' W 095°02'6037110881.5
2018-Feb-13 13:24N 46°29' E 030°52'0 0.0
2018-Feb-13 13:00N 46°29' E 030°52'5115268.5
2018-Feb-13 13:00N 46°51' E 031°58'51102.5
2018-Feb-13 12:30N 46°29' E 030°52'5113086.6
2018-Feb-13 12:30N 46°51' E 031°58'0 0.0
2018-Feb-13 12:00N 46°51' E 031°58'51114.1
2018-Feb-13 11:33N 46°29' E 030°52'51944.5
2018-Feb-13 11:30N 46°51' E 031°58'51349.7
2018-Feb-13 11:21N 46°29' E 030°52'603720937.2
2018-Feb-13 11:04N 29°33' W 095°02'607791924.7
2018-Feb-13 11:00N 46°51' E 031°58'0 0.0
2018-Feb-13 10:30N 46°51' E 031°58'51102.6
2018-Feb-13 10:00N 46°29' E 030°52'5113090.4
2018-Feb-13 10:00N 46°51' E 031°58'0 0.0
2018-Feb-13 09:30N 46°51' E 031°58'51529.7
2018-Feb-13 09:24N 46°29' E 030°52'51126.0
2018-Feb-13 09:00N 46°51' E 031°58'511124.3
2018-Feb-13 08:57N 46°29' E 030°52'0 0.0
2018-Feb-13 08:30N 46°29' E 030°52'5111454.7
2018-Feb-13 08:30N 46°51' E 031°58'0 0.0
2018-Feb-13 08:00N 46°51' E 031°58'511131.3
2018-Feb-13 07:57N 46°29' E 030°52'0 0.0
2018-Feb-13 07:30N 46°29' E 030°52'5111454.4
2018-Feb-13 07:30N 46°51' E 031°58'51102.7
2018-Feb-13 07:00N 46°29' E 030°52'5111453.0
2018-Feb-13 07:00N 46°51' E 031°58'0 0.0
2018-Feb-13 06:30N 46°51' E 031°58'0 0.0
2018-Feb-13 06:00N 46°51' E 031°58'0 0.0
2018-Feb-13 05:30N 46°51' E 031°58'0 0.0
2018-Feb-13 05:00N 46°51' E 031°58'0 0.0
2018-Feb-13 04:30N 46°51' E 031°58'0 0.0
2018-Feb-13 04:00N 46°51' E 031°58'0 0.0
2018-Feb-13 03:30N 46°51' E 031°58'0 0.0
2018-Feb-13 03:00N 46°51' E 031°58'0 0.0
2018-Feb-13 02:30N 46°51' E 031°58'0 0.0
2018-Feb-13 02:00N 46°51' E 031°58'6077144887.9
2018-Feb-13 01:57N 29°33' W 095°02'607713267.5
2018-Feb-13 01:30N 46°51' E 031°58'0 0.0
2018-Feb-13 01:00N 46°51' E 031°58'0 0.0
2018-Feb-13 00:30N 46°51' E 031°58'0 0.0
2018-Feb-13 00:00N 46°51' E 031°58'0 0.0
2018-Feb-12 23:30N 46°51' E 031°58'0 0.0
2018-Feb-12 23:00N 46°51' E 031°58'0 0.0
2018-Feb-12 22:30N 46°51' E 031°58'607722742.3
2018-Feb-12 22:14N 29°33' W 095°02'607726138.7
2018-Feb-12 22:00N 46°51' E 031°58'607751721.1
2018-Feb-12 21:53N 29°33' W 095°02'607715876.7
2018-Feb-12 21:30N 46°51' E 031°58'6077683690.0
2018-Feb-12 21:29N 29°33' W 095°02'607712374.5
2018-Feb-12 21:00N 46°51' E 031°58'607740365.5
2018-Feb-12 20:51N 29°33' W 095°02'607717391.2
2018-Feb-12 20:30N 46°51' E 031°58'607760270.2
2018-Feb-12 20:24N 29°33' W 095°02'607715224.8
2018-Feb-12 20:00N 46°51' E 031°58'607720257.5
2018-Feb-12 19:42N 29°33' W 095°02'607730386.2
2018-Feb-12 19:30N 46°51' E 031°58'6077120209.2
2018-Feb-12 19:27N 29°33' W 095°02'607713521.7
2018-Feb-12 19:00N 46°51' E 031°58'607710939038.2
2018-Feb-12 19:00N 29°33' W 095°02'607712168.0
2018-Feb-12 18:30N 46°51' E 031°58'607772443.9
2018-Feb-12 18:25N 29°33' W 095°02'607714604.8
2018-Feb-12 18:00N 46°51' E 031°58'607710939017.6
2018-Feb-12 18:00N 29°33' W 095°02'607712174.8
2018-Feb-12 17:30N 46°51' E 031°58'6077119552.3
2018-Feb-12 17:27N 29°33' W 095°02'607713530.0
2018-Feb-12 17:00N 46°51' E 031°58'0 0.7
2018-Feb-12 16:30N 46°51' E 031°59'1 1.1
2018-Feb-12 16:01N 46°51' E 031°58'0 0.2
2018-Feb-12 15:16N 46°51' E 031°58'607728673.8
2018-Feb-12 15:04N 29°33' W 095°02'607769016.1
2018-Feb-12 14:58N 46°51' E 031°58'48355.2
2018-Feb-12 14:50N 46°32' E 030°55'2 4.5
2018-Feb-12 14:30N 46°31' E 030°53'492035.5
2018-Feb-12 14:28N 46°51' E 031°58'51105.2
2018-Feb-12 13:59N 46°29' E 030°52'513053.2
2018-Feb-12 13:58N 46°51' E 031°58'51109.0
2018-Feb-12 13:30N 46°29' E 030°52'51627.6
2018-Feb-12 13:25N 46°51' E 031°58'0 0.0
2018-Feb-12 12:58N 46°51' E 031°58'0 0.0
2018-Feb-12 12:28N 46°51' E 031°58'0 0.0
2018-Feb-12 11:58N 46°51' E 031°58'0 0.0
2018-Feb-12 11:28N 46°51' E 031°58'0 0.0
2018-Feb-12 10:58N 46°51' E 031°58'0 0.0
2018-Feb-12 10:28N 46°51' E 031°58'0 0.0
2018-Feb-12 09:58N 46°51' E 031°58'607797669.9
2018-Feb-12 09:55N 29°33' W 095°02'607713882.0
2018-Feb-12 09:28N 46°51' E 031°58'6077299699.9
2018-Feb-12 09:27N 29°33' W 095°02'607712668.3
2018-Feb-12 08:58N 46°51' E 031°58'0 0.0
2018-Feb-12 08:28N 46°51' E 031°58'0 0.0
2018-Feb-12 07:58N 46°51' E 031°58'0 0.0
2018-Feb-12 07:28N 46°51' E 031°58'0 0.0
2018-Feb-12 06:58N 46°51' E 031°58'0 0.0
2018-Feb-12 06:28N 46°51' E 031°58'0 0.0
2018-Feb-12 05:58N 46°51' E 031°58'0 0.0
2018-Feb-12 05:28N 46°51' E 031°58'607777035.5
2018-Feb-12 05:24N 29°33' W 095°02'607814713.7
2018-Feb-12 04:59N 46°51' E 031°59'0 0.6
2018-Feb-12 04:29N 46°51' E 031°58'0 0.0
2018-Feb-12 03:59N 46°51' E 031°58'0 0.0
2018-Feb-12 03:29N 46°51' E 031°58'0 0.0
2018-Feb-12 02:59N 46°51' E 031°58'0 0.2
2018-Feb-12 02:29N 46°51' E 031°59'0 0.2
2018-Feb-12 01:59N 46°51' E 031°58'0 0.0
2018-Feb-12 01:29N 46°51' E 031°58'51953.7
2018-Feb-12 01:25N 46°28' E 030°52'51114.5
2018-Feb-12 00:59N 46°51' E 031°58'0 0.0
2018-Feb-12 00:29N 46°51' E 031°58'0 0.0
2018-Feb-11 23:59N 46°51' E 031°58'0 0.0
2018-Feb-11 23:29N 46°51' E 031°58'0 0.0
2018-Feb-11 22:59N 46°51' E 031°58'0 0.0
2018-Feb-11 22:29N 46°51' E 031°58'0 0.0
2018-Feb-11 21:59N 46°51' E 031°58'0 0.0
2018-Feb-11 21:29N 46°51' E 031°58'0 0.0
2018-Feb-11 20:59N 46°51' E 031°58'0 0.0
2018-Feb-11 20:29N 46°51' E 031°58'0 0.0
2018-Feb-11 19:59N 46°51' E 031°58'0 0.0
2018-Feb-11 19:29N 46°51' E 031°58'0 0.0
2018-Feb-11 18:59N 46°51' E 031°58'0 0.0
2018-Feb-11 18:29N 46°51' E 031°58'0 0.0
2018-Feb-11 17:59N 46°51' E 031°58'51657.5
2018-Feb-11 17:54N 46°28' E 030°52'51121.0
2018-Feb-11 17:29N 46°51' E 031°58'0 0.0
2018-Feb-11 16:59N 46°51' E 031°58'0 0.0
2018-Feb-11 16:29N 46°51' E 031°58'0 0.0
2018-Feb-11 15:59N 46°51' E 031°58'0 0.0
2018-Feb-11 15:29N 46°51' E 031°58'0 0.0
2018-Feb-11 14:59N 46°51' E 031°58'0 0.0
2018-Feb-11 14:29N 46°51' E 031°58'51161.0
2018-Feb-11 14:10N 46°28' E 030°52'51280.0
2018-Feb-11 13:59N 46°51' E 031°58'51123.1
2018-Feb-11 13:34N 46°28' E 030°52'51599.0
2018-Feb-11 13:29N 46°51' E 031°58'0 0.0
2018-Feb-11 12:59N 46°51' E 031°58'0 0.0
2018-Feb-11 12:29N 46°51' E 031°58'607719208.2
2018-Feb-11 12:10N 29°33' W 095°02'607733048.5
2018-Feb-11 11:59N 46°51' E 031°58'0 0.0
2018-Feb-11 11:29N 46°51' E 031°58'0 0.0
2018-Feb-11 10:59N 46°51' E 031°58'0 0.0
2018-Feb-11 10:29N 46°51' E 031°58'607727076.8
2018-Feb-11 10:15N 29°33' W 095°02'607722032.3
2018-Feb-11 09:59N 46°51' E 031°58'0 0.0
2018-Feb-11 09:29N 46°51' E 031°58'0 0.0
2018-Feb-11 08:59N 46°51' E 031°58'0 0.0
2018-Feb-11 08:29N 46°51' E 031°58'0 0.0
2018-Feb-11 07:59N 46°51' E 031°58'0 0.0
2018-Feb-11 07:29N 46°51' E 031°58'0 0.0
2018-Feb-11 06:50N 46°51' E 031°58'607740665.6
2018-Feb-11 06:41N 29°33' W 095°02'607730344.1
2018-Feb-11 06:29N 46°51' E 031°58'607766297.3
2018-Feb-11 06:23N 29°33' W 095°02'607714883.1
2018-Feb-11 05:59N 46°51' E 031°58'51155.4
2018-Feb-11 05:39N 46°28' E 030°52'51296.7
2018-Feb-11 05:29N 46°51' E 031°58'0 0.0
2018-Feb-11 04:59N 46°51' E 031°58'0 0.0
2018-Feb-11 04:29N 46°51' E 031°58'51351.8
2018-Feb-11 04:20N 46°28' E 030°52'0 0.0
2018-Feb-11 04:01N 46°28' E 030°52'511669.4
2018-Feb-11 03:59N 46°51' E 031°58'0 0.5
2018-Feb-11 03:29N 46°51' E 031°59'51113.7
2018-Feb-11 03:02N 46°28' E 030°52'51994.3
2018-Feb-11 02:59N 46°51' E 031°59'51343.8
2018-Feb-11 02:50N 46°28' E 030°52'0 0.5
2018-Feb-11 02:30N 46°28' E 030°52'511962.1
2018-Feb-11 02:29N 46°51' E 031°59'52104.5
2018-Feb-11 01:59N 46°28' E 030°51'529287.5
2018-Feb-11 01:59N 46°51' E 031°58'0 0.0
2018-Feb-11 01:29N 46°51' E 031°58'0 0.0
2018-Feb-11 00:59N 46°51' E 031°58'0 0.0
2018-Feb-11 00:29N 46°51' E 031°58'0 0.0
2018-Feb-10 23:59N 46°51' E 031°58'0 0.0
2018-Feb-10 23:29N 46°51' E 031°58'607766498.6
2018-Feb-10 23:23N 29°33' W 095°02'8234307.9
2018-Feb-10 23:12N 25°44' W 080°09'556925604.6
2018-Feb-10 22:59N 46°51' E 031°58'6077145853.9
2018-Feb-10 22:56N 29°33' W 095°02'82320300.6
2018-Feb-10 22:54N 25°44' W 080°09'556913338.9
2018-Feb-10 22:29N 46°51' E 031°58'5569171353.6
2018-Feb-10 22:27N 25°44' W 080°09'82389812.4
2018-Feb-10 22:26N 29°33' W 095°02'607713259.4
2018-Feb-10 21:59N 46°51' E 031°58'557220343.4
2018-Feb-10 21:42N 25°40' W 080°10'8247012.4
2018-Feb-10 21:35N 29°33' W 095°02'607755811.4
2018-Feb-10 21:29N 46°51' E 031°58'607726107.5
2018-Feb-10 21:15N 29°33' W 095°02'607722742.3
2018-Feb-10 20:59N 46°51' E 031°58'607723524.8
2018-Feb-10 20:43N 29°33' W 095°02'607725147.2
2018-Feb-10 20:29N 46°51' E 031°58'607738450.0
2018-Feb-10 20:19N 29°33' W 095°02'607717772.6
2018-Feb-10 19:59N 46°51' E 031°58'  
Track history (hours):
 
Tides and Currents Weather Stations Pressure Air Temp Water Temp Dewpoint Dewpoint Depression Visibility Wind Speed Wind Dir Waves Ship Positions

Valiant

Last reported at 2018-Feb-20 19:29 UTC. Time now 2018-Feb-20 19:54 UTC.
Position N 46°51' E 031°58'.

Length 11 m.

Type: Port tender. MMSI: 236111176.

Date/timePositionNaut miles runAvg speedWind from/ knotsBaromVisibWave heightAir tempDewpointWater temp
2018-Feb-20 19:29N 46°51' E 031°58'6077225547.4
2018-Feb-20 19:28N 29°33' W 095°02'607712846.8
2018-Feb-20 18:59N 46°51' E 031°58'6077225547.3
2018-Feb-20 18:58N 29°33' W 095°02'607712846.8
2018-Feb-20 18:29N 46°51' E 031°58'607778982.2
2018-Feb-20 18:25N 29°33' W 095°02'0 0.1
2018-Feb-20 18:00N 29°33' W 095°02'6077412794.0
2018-Feb-20 17:59N 46°51' E 031°58'607712523.2
2018-Feb-20 17:30N 29°33' W 095°02'6077412792.8
2018-Feb-20 17:29N 46°51' E 031°58'0 0.0
2018-Feb-20 16:59N 46°51' E 031°58'6077175024.6
2018-Feb-20 16:57N 29°33' W 095°02'607713069.3
2018-Feb-20 16:29N 46°51' E 031°58'607732800.7
2018-Feb-20 16:18N 29°33' W 095°02'0 0.0
2018-Feb-20 16:00N 29°33' W 095°02'6077412793.3
2018-Feb-20 15:59N 46°51' E 031°58'0 0.0
2018-Feb-20 15:29N 46°51' E 031°58'60773646343.3
2018-Feb-20 15:29N 29°33' W 095°02'607712195.1
2018-Feb-20 14:59N 46°51' E 031°58'60773125442.1
2018-Feb-20 14:59N 29°33' W 095°02'607712201.9
2018-Feb-20 14:29N 46°51' E 031°58'60773646352.2
2018-Feb-20 14:29N 29°33' W 095°02'607712195.2
2018-Feb-20 13:59N 46°51' E 031°58'55730.3
2018-Feb-20 13:55N 46°29' E 030°45'55116.3
2018-Feb-20 13:26N 46°51' E 031°58'552182.7
2018-Feb-20 13:25N 46°29' E 030°45'0 0.0
2018-Feb-20 12:58N 46°29' E 030°45'552159.0
2018-Feb-20 12:56N 46°51' E 031°58'0 0.0
2018-Feb-20 12:26N 46°51' E 031°58'55738.4
2018-Feb-20 12:22N 46°29' E 030°45'5592.3
2018-Feb-20 11:46N 46°51' E 031°59'0 1.1
2018-Feb-20 11:28N 46°51' E 031°58'0 0.0
2018-Feb-20 10:58N 46°51' E 031°58'0 0.0
2018-Feb-20 10:28N 46°51' E 031°58'0 0.0
2018-Feb-20 09:52N 46°51' E 031°58'0 0.0
2018-Feb-20 09:28N 46°51' E 031°58'0 0.0
2018-Feb-20 08:58N 46°51' E 031°58'0 0.0
2018-Feb-20 08:28N 46°51' E 031°58'607745202.6
2018-Feb-20 08:20N 29°33' W 095°02'607716624.7
2018-Feb-20 07:58N 46°51' E 031°58'6077176436.2
2018-Feb-20 07:56N 29°33' W 095°02'0 0.0
2018-Feb-20 07:29N 29°33' W 095°02'6077397783.4
2018-Feb-20 07:28N 46°51' E 031°58'55277.8
2018-Feb-20 07:16N 46°29' E 030°45'603121120.1
2018-Feb-20 06:59N 29°33' W 095°02'6077390679.7
2018-Feb-20 06:58N 46°51' E 031°58'551135.0
2018-Feb-20 06:55N 46°29' E 030°45'603113820.1
2018-Feb-20 06:29N 29°33' W 095°02'6031443090.2
2018-Feb-20 06:28N 46°29' E 030°45'5539726.8
2018-Feb-20 06:28N 46°51' E 031°58'607712749.5
2018-Feb-20 05:59N 29°33' W 095°02'6077257388.8
2018-Feb-20 05:58N 46°51' E 031°58'551141.5
2018-Feb-20 05:55N 46°29' E 030°45'0 0.0
2018-Feb-20 05:28N 46°29' E 030°45'551073.7
2018-Feb-20 05:25N 46°51' E 031°58'6077175024.7
2018-Feb-20 05:23N 29°33' W 095°02'0 0.0
2018-Feb-20 04:59N 29°33' W 095°02'6077397783.5
2018-Feb-20 04:58N 46°51' E 031°58'607712530.4
2018-Feb-20 04:29N 29°33' W 095°02'6077397782.0
2018-Feb-20 04:28N 46°51' E 031°58'55185.1
2018-Feb-20 04:10N 46°29' E 030°45'55273.2
2018-Feb-20 03:58N 46°51' E 031°58'6077643471.9
2018-Feb-20 03:57N 29°33' W 095°02'607712395.5
2018-Feb-20 03:28N 46°51' E 031°58'607771731.3
2018-Feb-20 03:23N 29°33' W 095°02'607714634.2
2018-Feb-20 02:58N 46°51' E 031°58'607732850.0
2018-Feb-20 02:47N 29°33' W 095°02'603122950.8
2018-Feb-20 02:31N 46°29' E 030°45'6031160825.3
2018-Feb-20 02:29N 29°33' W 095°02'6031471987.0
2018-Feb-20 02:28N 46°29' E 030°45'5528412.9
2018-Feb-20 02:28N 46°51' E 031°59'607712530.7
2018-Feb-20 01:59N 29°33' W 095°02'6077405158.5
2018-Feb-20 01:58N 46°51' E 031°59'55279.4
2018-Feb-20 01:46N 46°29' E 030°45'55182.6
2018-Feb-20 01:28N 46°51' E 031°58'6077336585.8
2018-Feb-20 01:27N 29°33' W 095°02'603117580.1
2018-Feb-20 01:06N 46°29' E 030°45'603166395.8
2018-Feb-20 01:01N 29°33' W 095°02'6077125735.9
2018-Feb-20 00:58N 46°51' E 031°58'55342.5
2018-Feb-20 00:48N 46°29' E 030°45'603119684.0
2018-Feb-20 00:30N 29°33' W 095°02'6077186991.9
2018-Feb-20 00:28N 46°51' E 031°58'0 0.0
2018-Feb-19 23:58N 46°51' E 031°58'607788935.1
2018-Feb-19 23:54N 29°33' W 095°02'603120618.6
2018-Feb-19 23:36N 46°29' E 030°45'55397.3
2018-Feb-19 23:28N 46°51' E 031°58'6077331486.0
2018-Feb-19 23:27N 29°33' W 095°02'0 0.0
2018-Feb-19 23:00N 29°33' W 095°02'6077193611.3
2018-Feb-19 22:58N 46°51' E 031°58'0 0.0
2018-Feb-19 22:28N 46°51' E 031°58'607787863.8
2018-Feb-19 22:23N 29°33' W 095°02'6031144743.0
2018-Feb-19 22:21N 46°29' E 030°45'55141.7
2018-Feb-19 21:58N 46°51' E 031°58'607737785.9
2018-Feb-19 21:48N 29°33' W 095°02'607715616.0
2018-Feb-19 21:25N 46°51' E 031°58'55502.8
2018-Feb-19 21:18N 46°29' E 030°45'603124017.0
2018-Feb-19 21:03N 29°33' W 095°02'0 0.2
2018-Feb-19 21:00N 29°33' W 095°02'6077151930.9
2018-Feb-19 20:58N 46°51' E 031°58'55499.1
2018-Feb-19 20:51N 46°29' E 030°45'0 0.0
2018-Feb-19 20:30N 46°29' E 030°45'551742.3
2018-Feb-19 20:28N 46°51' E 031°58'6077575738.9
2018-Feb-19 20:27N 29°33' W 095°02'607712416.6
2018-Feb-19 19:58N 46°51' E 031°58'6077560976.8
2018-Feb-19 19:57N 29°33' W 095°02'603181930.0
2018-Feb-19 19:53N 46°29' E 030°45'55132.8
2018-Feb-19 19:28N 46°51' E 031°58'55504.1
2018-Feb-19 19:21N 46°29' E 030°45'55141.4
2018-Feb-19 18:58N 46°51' E 031°58'607754832.2
2018-Feb-19 18:51N 29°33' W 095°02'603160816.3
2018-Feb-19 18:45N 46°29' E 030°45'0 0.0
2018-Feb-19 18:30N 46°29' E 030°45'551379.3
2018-Feb-19 18:28N 46°51' E 031°58'6077560975.6
2018-Feb-19 18:27N 29°33' W 095°02'603112938.9
2018-Feb-19 17:59N 46°29' E 030°45'6031657922.7
2018-Feb-19 17:58N 29°33' W 095°02'6077428982.0
2018-Feb-19 17:58N 46°51' E 031°58'55113.7
2018-Feb-19 17:28N 46°29' E 030°45'603110855702.1
2018-Feb-19 17:28N 29°33' W 095°02'6077428981.3
2018-Feb-19 17:28N 46°51' E 031°58'0 0.0
2018-Feb-19 16:58N 46°51' E 031°58'552047.7
2018-Feb-19 16:56N 46°29' E 030°45'6031700367.9
2018-Feb-19 16:55N 29°33' W 095°02'603113435.3
2018-Feb-19 16:29N 46°29' E 030°45'553611.5
2018-Feb-19 16:28N 46°51' E 031°58'607725830.0
2018-Feb-19 16:14N 29°33' W 095°02'0 0.0
2018-Feb-19 15:58N 29°33' W 095°02'6031775409.1
2018-Feb-19 15:58N 46°29' E 030°45'55978.5
2018-Feb-19 15:55N 46°51' E 031°58'0 0.0
2018-Feb-19 15:28N 46°51' E 031°58'6077170922.2
2018-Feb-19 15:25N 29°33' W 095°02'6031775407.3
2018-Feb-19 15:25N 46°29' E 030°45'603113672.2
2018-Feb-19 14:59N 29°33' W 095°02'6077390680.0
2018-Feb-19 14:58N 46°51' E 031°58'551289.8
2018-Feb-19 14:55N 46°29' E 030°45'603113629.3
2018-Feb-19 14:28N 29°33' W 095°02'6077412794.3
2018-Feb-19 14:28N 46°51' E 031°58'55227.0
2018-Feb-19 14:13N 46°29' E 030°45'0 0.0
2018-Feb-19 13:59N 46°29' E 030°45'551757.8
2018-Feb-19 13:58N 46°51' E 031°58'607770802.8
2018-Feb-19 13:52N 29°33' W 095°02'0 0.0
2018-Feb-19 13:30N 29°33' W 095°02'6077127198.1
2018-Feb-19 13:28N 46°51' E 031°58'55717.1
2018-Feb-19 13:23N 46°29' E 030°45'603116058.7
2018-Feb-19 13:00N 29°33' W 095°02'6031246720.5
2018-Feb-19 12:59N 46°29' E 030°45'55758.1
2018-Feb-19 12:55N 46°51' E 031°58'55134.1
2018-Feb-19 12:30N 46°29' E 030°45'551418.8
2018-Feb-19 12:28N 46°51' E 031°58'6077170922.4
2018-Feb-19 12:25N 29°33' W 095°02'603114181.2
2018-Feb-19 12:00N 46°29' E 030°45'551408.7
2018-Feb-19 11:58N 46°51' E 031°58'607712508.9
2018-Feb-19 11:28N 29°33' W 095°02'6077428981.3
2018-Feb-19 11:28N 46°51' E 031°58'55177.5
2018-Feb-19 11:09N 46°29' E 030°45'603132946.0
2018-Feb-19 10:58N 29°33' W 095°02'6077994458.9
2018-Feb-19 10:58N 46°51' E 031°58'555093.3
2018-Feb-19 10:57N 46°29' E 030°45'603112470.7
2018-Feb-19 10:28N 29°33' W 095°02'60771093904.7
2018-Feb-19 10:28N 46°51' E 031°58'55915.4
2018-Feb-19 10:24N 46°29' E 030°45'55139.5
2018-Feb-19 10:00N 46°51' E 031°59'6078497261.3
2018-Feb-19 09:59N 29°33' W 095°02'6031145714.3
2018-Feb-19 09:57N 46°29' E 030°45'603113402.1
2018-Feb-19 09:30N 29°33' W 095°02'60771367379.3
2018-Feb-19 09:30N 46°51' E 031°58'0 0.0
2018-Feb-19 09:00N 46°51' E 031°58'55281.7
2018-Feb-19 08:48N 46°29' E 030°45'55136.5
2018-Feb-19 08:24N 46°51' E 031°58'6077131795.7
2018-Feb-19 08:21N 29°33' W 095°02'603130280.9
2018-Feb-19 08:09N 46°29' E 030°45'0 0.0
2018-Feb-19 08:00N 46°29' E 030°45'5510454.0
2018-Feb-19 08:00N 46°51' E 031°58'607763414.8
2018-Feb-19 07:54N 29°33' W 095°02'607715036.5
2018-Feb-19 07:30N 46°51' E 031°58'6077131006.6
2018-Feb-19 07:27N 29°33' W 095°02'603125970.6
2018-Feb-19 07:13N 46°29' E 030°45'603127728.5
2018-Feb-19 07:00N 29°33' W 095°02'60771562718.7
2018-Feb-19 07:00N 46°51' E 031°58'551966.6
2018-Feb-19 06:58N 46°29' E 030°45'55116.9
2018-Feb-19 06:30N 46°51' E 031°58'6077131006.4
2018-Feb-19 06:27N 29°33' W 095°02'603173598.1
2018-Feb-19 06:22N 46°29' E 030°45'603116778.6
2018-Feb-19 06:00N 29°33' W 095°02'6077497229.5
2018-Feb-19 06:00N 46°51' E 031°58'551986.3
2018-Feb-19 05:58N 46°29' E 030°45'55116.8
2018-Feb-19 05:30N 46°51' E 031°58'551947.4
2018-Feb-19 05:28N 46°29' E 030°45'6031230972.7
2018-Feb-19 05:26N 29°33' W 095°02'603113646.4
2018-Feb-19 05:00N 46°29' E 030°45'5515278.9
2018-Feb-19 05:00N 46°51' E 031°58'60771286946.8
2018-Feb-19 04:59N 29°33' W 095°02'607712270.4
2018-Feb-19 04:30N 46°51' E 031°58'60771286944.7
2018-Feb-19 04:29N 29°33' W 095°02'607712270.4
2018-Feb-19 04:00N 46°51' E 031°58'6077475610.0
2018-Feb-19 03:59N 29°33' W 095°02'603118092.9
2018-Feb-19 03:39N 46°29' E 030°45'0 0.0
2018-Feb-19 03:30N 46°29' E 030°45'5515278.9
2018-Feb-19 03:30N 46°51' E 031°58'6077465490.7
2018-Feb-19 03:29N 29°33' W 095°02'607712480.4
2018-Feb-19 03:00N 46°51' E 031°58'55575.8
2018-Feb-19 02:54N 46°29' E 030°45'603190088.9
2018-Feb-19 02:50N 29°33' W 095°02'607718021.5
2018-Feb-19 02:30N 46°51' E 031°58'6077465491.0
2018-Feb-19 02:29N 29°33' W 095°02'6031182449.1
2018-Feb-19 02:27N 46°29' E 030°45'55121.6
2018-Feb-19 02:00N 46°51' E 031°58'6077475610.2
2018-Feb-19 01:59N 29°33' W 095°02'603145516.6
2018-Feb-19 01:51N 46°29' E 030°45'55155.5
2018-Feb-19 01:30N 46°51' E 031°58'60771286945.1
2018-Feb-19 01:29N 29°33' W 095°02'603113680.8
2018-Feb-19 01:03N 46°29' E 030°45'551013.4
2018-Feb-19 01:00N 46°51' E 031°58'55579.1
2018-Feb-19 00:54N 46°29' E 030°45'603137890.8
2018-Feb-19 00:44N 29°33' W 095°02'603125042.0
2018-Feb-19 00:30N 46°29' E 030°45'5511684.4
2018-Feb-19 00:30N 46°51' E 031°58'607729685.3
2018-Feb-19 00:17N 29°33' W 095°02'603120776.5
2018-Feb-19 00:00N 46°29' E 030°45'5511034.7
2018-Feb-19 00:00N 46°51' E 031°58'607769016.0
2018-Feb-18 23:54N 29°33' W 095°02'0 0.0
2018-Feb-18 23:30N 29°33' W 095°02'6077497229.0
2018-Feb-18 23:30N 46°51' E 031°58'551233.7
2018-Feb-18 23:27N 46°29' E 030°45'603113603.6
2018-Feb-18 23:00N 29°33' W 095°02'6077508791.7
2018-Feb-18 23:00N 46°51' E 031°58'55577.4
2018-Feb-18 22:54N 46°29' E 030°45'603115365.5
2018-Feb-18 22:30N 29°33' W 095°02'6077508792.9
2018-Feb-18 22:30N 46°51' E 031°58'55577.4
2018-Feb-18 22:24N 46°29' E 030°45'603115365.5
2018-Feb-18 22:00N 29°33' W 095°02'6077508792.5
2018-Feb-18 22:00N 46°51' E 031°58'0 0.0
2018-Feb-18 21:30N 46°51' E 031°58'6077159693.7
2018-Feb-18 21:27N 29°33' W 095°02'607713155.8
2018-Feb-18 21:00N 46°51' E 031°58'607769234.4
2018-Feb-18 20:54N 29°33' W 095°02'603129064.8
2018-Feb-18 20:42N 46°29' E 030°45'603131284.5
2018-Feb-18 20:30N 29°33' W 095°02'6077508792.1
2018-Feb-18 20:30N 46°51' E 031°58'607712452.0
2018-Feb-18 20:00N 29°33' W 095°02'6077508792.9
2018-Feb-18 20:00N 46°51' E 031°58'55159.7
2018-Feb-18 19:39N 46°29' E 030°45'603142322.5
2018-Feb-18 19:30N 29°33' W 095°02'6077508792.9
2018-Feb-18 19:30N 46°51' E 031°58'55187.0
2018-Feb-18 19:12N 46°29' E 030°45'55268.8
2018-Feb-18 19:00N 46°51' E 031°58'607744198.1
2018-Feb-18 18:51N 29°33' W 095°02'6031775407.9
2018-Feb-18 18:51N 46°29' E 030°45'551832513.4
2018-Feb-18 18:41N 25°44' W 080°09'556930193.3
2018-Feb-18 18:30N 46°51' E 031°58'6077158536.7
2018-Feb-18 18:27N 29°33' W 095°02'82330243.7
2018-Feb-18 18:26N 25°44' W 080°09'5518183941.4
2018-Feb-18 18:24N 46°29' E 030°45'55136.3
2018-Feb-18 18:00N 46°51' E 031°58'6077204468.0
2018-Feb-18 17:58N 29°33' W 095°02'603136551.2
2018-Feb-18 17:48N 46°29' E 030°45'0 0.0
2018-Feb-18 17:30N 46°29' E 030°45'555841.9
2018-Feb-18 17:30N 46°51' E 031°58'6077206396.5
2018-Feb-18 17:28N 29°33' W 095°02'607712915.0
2018-Feb-18 17:00N 46°51' E 031°58'551369.8
2018-Feb-18 16:57N 46°29' E 030°45'603131881.7
2018-Feb-18 16:46N 29°33' W 095°02'607722462.1
2018-Feb-18 16:30N 46°51' E 031°58'6077204467.9
2018-Feb-18 16:28N 29°33' W 095°02'6031586795.6
2018-Feb-18 16:27N 46°29' E 030°45'55119.9
2018-Feb-18 16:00N 46°51' E 031°58'6077204467.9
2018-Feb-18 15:58N 29°33' W 095°02'603114709.6
2018-Feb-18 15:33N 46°29' E 030°45'6031125499.3
2018-Feb-18 15:30N 29°33' W 095°02'6077497227.8
2018-Feb-18 15:30N 46°51' E 031°58'55229.6
2018-Feb-18 15:15N 46°29' E 030°45'603122806.1
2018-Feb-18 14:59N 29°33' W 095°02'6077225547.0
2018-Feb-18 14:58N 46°51' E 031°58'556620.8
2018-Feb-18 14:57N 46°29' E 030°45'552233466.9
2018-Feb-18 14:47N 25°41' W 080°11'557317707.1
2018-Feb-18 14:29N 46°51' E 031°58'5569716025.6
2018-Feb-18 14:28N 25°43' W 080°09'551813413.9
2018-Feb-18 14:03N 46°29' E 030°45'551109.6
2018-Feb-18 14:00N 46°51' E 031°58'6077377208.2
2018-Feb-18 13:59N 29°33' W 095°02'603125603.1
2018-Feb-18 13:45N 46°29' E 030°45'55222.4
2018-Feb-18 13:30N 46°51' E 031°58'607752214.7
2018-Feb-18 13:23N 29°33' W 095°02'6031172312.2
2018-Feb-18 13:21N 46°29' E 030°45'603117341.4
2018-Feb-18 13:00N 29°33' W 095°02'60775469506.9
2018-Feb-18 13:00N 46°51' E 031°58'55364.5
2018-Feb-18 12:51N 46°29' E 030°45'603115836.2
2018-Feb-18 12:28N 29°33' W 095°02'6077341844.2
2018-Feb-18 12:27N 46°51' E 031°58'5566208.5
2018-Feb-18 12:27N 46°29' E 030°45'603112513.8
2018-Feb-18 11:58N 29°33' W 095°02'6077358656.7
2018-Feb-18 11:57N 46°51' E 031°58'5533104.2
2018-Feb-18 11:57N 46°29' E 030°45'55123.1
2018-Feb-18 11:30N 46°51' E 031°58'6077183849.3
2018-Feb-18 11:28N 29°33' W 095°02'607713007.2
2018-Feb-18 11:00N 46°51' E 031°58'6077185407.4
2018-Feb-18 10:58N 29°33' W 095°02'607713007.2
2018-Feb-18 10:30N 46°51' E 031°58'607731753.4
2018-Feb-18 10:19N 29°33' W 095°02'6031101931.5
2018-Feb-18 10:15N 46°29' E 030°45'55221.4
2018-Feb-18 10:00N 46°51' E 031°58'607766701.2
2018-Feb-18 09:55N 29°33' W 095°02'603116752.6
2018-Feb-18 09:33N 46°29' E 030°45'551122.2
2018-Feb-18 09:30N 46°51' E 031°58'551091.3
2018-Feb-18 09:27N 46°29' E 030°45'603131603.3
2018-Feb-18 09:16N 29°33' W 095°02'607723499.6
2018-Feb-18 09:00N 46°51' E 031°58'551091.4
2018-Feb-18 08:57N 46°29' E 030°45'6031147697.0
2018-Feb-18 08:55N 29°33' W 095°02'607714872.9
2018-Feb-18 08:30N 46°51' E 031°58'551091.3
2018-Feb-18 08:27N 46°29' E 030°45'6031149734.3
2018-Feb-18 08:25N 29°33' W 095°02'607714852.8
2018-Feb-18 08:00N 46°51' E 031°58'607731799.5
2018-Feb-18 07:49N 29°33' W 095°02'603123245.7
2018-Feb-18 07:33N 46°29' E 030°45'551122.2
2018-Feb-18 07:30N 46°51' E 031°58'6077146832.7
2018-Feb-18 07:28N 29°33' W 095°02'603123245.7
2018-Feb-18 07:12N 46°29' E 030°45'55277.0
2018-Feb-18 07:00N 46°51' E 031°58'607766498.7
2018-Feb-18 06:55N 29°33' W 095°02'603128833.2
2018-Feb-18 06:42N 46°29' E 030°45'55276.2
2018-Feb-18 06:30N 46°51' E 031°58'6077147824.8
2018-Feb-18 06:28N 29°33' W 095°02'603138023.5
2018-Feb-18 06:18N 46°29' E 030°45'55184.1
2018-Feb-18 06:00N 46°51' E 031°58'551085.4
2018-Feb-18 05:57N 46°29' E 030°45'603152065.8
2018-Feb-18 05:50N 29°33' W 095°02'0 0.1
2018-Feb-18 05:29N 29°33' W 095°02'6077237805.8
2018-Feb-18 05:27N 46°51' E 031°58'55198652.6
2018-Feb-18 05:27N 46°29' E 030°45'55122.7
2018-Feb-18 05:00N 46°51' E 031°58'6077754416.5
2018-Feb-18 05:00N 29°33' W 095°02'603165395.9
2018-Feb-18 04:54N 46°29' E 030°45'55138.0
2018-Feb-18 04:30N 46°51' E 031°58'6077781358.9
2018-Feb-18 04:30N 29°33' W 095°02'603142322.5
2018-Feb-18 04:21N 46°29' E 030°45'55157.9
2018-Feb-18 04:00N 46°51' E 031°58'6077364633.8
2018-Feb-18 03:59N 29°33' W 095°02'6031179432.9
2018-Feb-18 03:57N 46°29' E 030°45'55122.6
2018-Feb-18 03:30N 46°51' E 031°58'551115.9
2018-Feb-18 03:27N 46°29' E 030°45'603190088.9
2018-Feb-18 03:23N 29°33' W 095°02'607715853.7
2018-Feb-18 03:00N 46°51' E 031°58'6077377208.2
2018-Feb-18 02:59N 29°33' W 095°02'603132796.7
2018-Feb-18 02:48N 46°29' E 030°45'603119045.1
2018-Feb-18 02:29N 29°33' W 095°02'6077182317.3
2018-Feb-18 02:27N 46°51' E 031°58'55198625.4
2018-Feb-18 02:27N 46°29' E 030°45'55122.7
2018-Feb-18 02:00N 46°51' E 031°58'6077364634.8
2018-Feb-18 01:59N 29°33' W 095°02'6031180928.8
2018-Feb-18 01:57N 46°29' E 030°45'0 0.0
2018-Feb-18 01:30N 46°29' E 030°45'5599312.7
2018-Feb-18 01:30N 46°51' E 031°58'607748726.2
2018-Feb-18 01:23N 29°33' W 095°02'603116106.4
2018-Feb-18 01:00N 46°29' E 030°45'5599312.7
2018-Feb-18 01:00N 46°51' E 031°58'6077243089.8
2018-Feb-18 00:59N 29°33' W 095°02'603112711.6
2018-Feb-18 00:30N 46°29' E 030°45'603110855702.1
2018-Feb-18 00:30N 29°33' W 095°02'607721878033.6
2018-Feb-18 00:30N 46°51' E 031°58'0 0.0
2018-Feb-18 00:00N 46°51' E 031°58'55276.6
2018-Feb-17 23:48N 46°29' E 030°45'6031120619.1
2018-Feb-17 23:45N 29°33' W 095°02'603124177.5
2018-Feb-17 23:30N 46°29' E 030°45'5549656.4
2018-Feb-17 23:30N 46°51' E 031°58'6077122223.9
2018-Feb-17 23:27N 29°33' W 095°02'603113427.0
2018-Feb-17 23:00N 46°29' E 030°45'5566211.3
2018-Feb-17 23:00N 46°51' E 031°58'607740514.9
2018-Feb-17 22:51N 29°33' W 095°02'603117258.7
2018-Feb-17 22:30N 46°29' E 030°45'5599312.7
2018-Feb-17 22:30N 46°51' E 031°58'607760772.5
2018-Feb-17 22:24N 29°33' W 095°02'603115119.4
2018-Feb-17 22:00N 46°29' E 030°45'60317237140.7
2018-Feb-17 22:00N 29°33' W 095°02'607721878062.7
2018-Feb-17 22:00N 46°51' E 031°58'55110.5
2018-Feb-17 21:30N 46°29' E 030°45'5599319.5
2018-Feb-17 21:30N 46°51' E 031°58'607730386.1
2018-Feb-17 21:18N 29°33' W 095°02'603120159.1
2018-Feb-17 21:00N 46°29' E 030°45'5549656.4
2018-Feb-17 21:00N 46°51' E 031°58'6077122910.6
2018-Feb-17 20:57N 29°33' W 095°02'603113435.3
2018-Feb-17 20:31N 46°29' E 030°45'60315427859.4
2018-Feb-17 20:30N 29°33' W 095°02'607721878077.9
2018-Feb-17 20:30N 46°51' E 031°58'55110.5
2018-Feb-17 20:00N 46°29' E 030°45'5549658.5
2018-Feb-17 20:00N 46°51' E 031°58'607730428.4
2018-Feb-17 19:48N 29°33' W 095°02'603120177.9
2018-Feb-17 19:30N 46°29' E 030°45'6031117997.1
2018-Feb-17 19:27N 29°33' W 095°02'607721878112.9
2018-Feb-17 19:27N 46°51' E 031°58'55123.0
2018-Feb-17 19:00N 46°29' E 030°45'5539726.8
2018-Feb-17 19:00N 46°51' E 031°58'607717377.3
2018-Feb-17 18:39N 29°33' W 095°02'603140506.3
2018-Feb-17 18:30N 46°29' E 030°45'5539723.3
2018-Feb-17 18:30N 46°51' E 031°58'6077122223.8
2018-Feb-17 18:27N 29°33' W 095°02'0 0.0
2018-Feb-17 18:00N 29°33' W 095°02'6031151828.0
2018-Feb-17 17:58N 46°29' E 030°45'5522069.5
2018-Feb-17 17:57N 46°51' E 031°58'55123.0
2018-Feb-17 17:30N 46°29' E 030°45'5549656.4
2018-Feb-17 17:30N 46°51' E 031°58'6077729268.1
2018-Feb-17 17:30N 29°33' W 095°02'603112308.1
2018-Feb-17 17:01N 46°29' E 030°45'5528375.1
2018-Feb-17 17:00N 46°51' E 031°58'607756241.8
2018-Feb-17 16:54N 29°33' W 095°02'603115453.0
2018-Feb-17 16:31N 46°29' E 030°45'5533105.6
2018-Feb-17 16:30N 46°51' E 031°58'6077810299.5
2018-Feb-17 16:30N 29°33' W 095°02'603112294.1
2018-Feb-17 16:01N 46°29' E 030°45'5528375.1
2018-Feb-17 16:00N 46°51' E 031°58'6077105691.1
2018-Feb-17 15:57N 29°33' W 095°02'607713742.5
2018-Feb-17 15:30N 46°51' E 031°58'6077781358.7
2018-Feb-17 15:30N 29°33' W 095°02'60311033875.5
2018-Feb-17 15:30N 46°29' E 030°45'56114.1
2018-Feb-17 15:00N 46°52' E 031°59'564252.7
2018-Feb-17 15:00N 46°29' E 030°45'6031134853.6
2018-Feb-17 14:57N 29°33' W 095°02'607813406.4
2018-Feb-17 14:30N 46°51' E 031°59'5614284.8
2018-Feb-17 14:30N 46°29' E 030°45'6031140983.4
2018-Feb-17 14:27N 29°33' W 095°02'607713438.6
2018-Feb-17 14:00N 46°51' E 031°58'5510454.4
2018-Feb-17 13:59N 46°29' E 030°45'6031140983.6
2018-Feb-17 13:57N 29°33' W 095°02'607713455.2
2018-Feb-17 13:30N 46°51' E 031°58'5510454.0
2018-Feb-17 13:30N 46°29' E 030°45'6031100515.8
2018-Feb-17 13:26N 29°33' W 095°02'0 0.0
2018-Feb-17 13:00N 29°33' W 095°02'60773646346.1
2018-Feb-17 13:00N 46°51' E 031°58'5510454.0
2018-Feb-17 13:00N 46°29' E 030°45'55111.5
2018-Feb-17 12:30N 46°51' E 031°58'5511035.5
2018-Feb-17 12:30N 46°29' E 030°45'6031100983.4
2018-Feb-17 12:26N 29°33' W 095°02'607713970.7
2018-Feb-17 12:00N 46°51' E 031°58'5511034.7
2018-Feb-17 12:00N 46°29' E 030°45'603154688.8
2018-Feb-17 11:53N 29°33' W 095°02'607715785.1
2018-Feb-17 11:30N 46°51' E 031°58'5511683.8
2018-Feb-17 11:30N 46°29' E 030°45'6031603095.0
2018-Feb-17 11:29N 29°33' W 095°02'607712530.4
2018-Feb-17 11:00N 46°51' E 031°58'6077107245.5
2018-Feb-17 10:56N 29°33' W 095°02'603178098.6
2018-Feb-17 10:52N 46°29' E 030°45'55150.7
2018-Feb-17 10:30N 46°51' E 031°58'6077875122.4
2018-Feb-17 10:29N 29°33' W 095°02'6031221544.9
2018-Feb-17 10:28N 46°29' E 030°45'55118.4
2018-Feb-17 10:00N 46°51' E 031°58'6077911584.4
2018-Feb-17 09:59N 29°33' W 095°02'6031219306.9
2018-Feb-17 09:58N 46°29' E 030°45'603113000.8
2018-Feb-17 09:30N 29°33' W 095°02'60773125433.4
2018-Feb-17 09:30N 46°51' E 031°58'55653.4
2018-Feb-17 09:25N 46°29' E 030°45'55132.8
2018-Feb-17 09:00N 46°51' E 031°58'6077257389.4
2018-Feb-17 08:58N 29°33' W 095°02'6031556703.4
2018-Feb-17 08:58N 46°29' E 030°45'55118.5
2018-Feb-17 08:30N 46°51' E 031°58'6077412794.6
2018-Feb-17 08:29N 29°33' W 095°02'6031305795.4
2018-Feb-17 08:28N 46°29' E 030°45'55118.4
2018-Feb-17 08:00N 46°51' E 031°58'552364.7
2018-Feb-17 07:58N 46°29' E 030°45'603190464.4
2018-Feb-17 07:54N 29°33' W 095°02'0 0.0
2018-Feb-17 07:30N 29°33' W 095°02'6077607724.9
2018-Feb-17 07:30N 46°51' E 031°58'552393.1
2018-Feb-17 07:28N 46°29' E 030°45'55115.6
2018-Feb-17 07:00N 46°51' E 031°58'552393.1
2018-Feb-17 06:58N 46°29' E 030°45'603127870.9
2018-Feb-17 06:45N 29°33' W 095°02'0 0.0
2018-Feb-17 06:30N 29°33' W 095°02'6077625087.2
2018-Feb-17 06:30N 46°51' E 031°58'552364.7
2018-Feb-17 06:28N 46°29' E 030°45'1 1.2
2018-Feb-17 06:00N 46°30' E 030°45'5516420.8
2018-Feb-17 06:00N 46°51' E 031°58'6077397783.0
2018-Feb-17 05:59N 29°33' W 095°02'603312546.7
2018-Feb-17 05:30N 46°31' E 030°48'60332413147.6
2018-Feb-17 05:30N 29°33' W 095°02'60773646353.1
2018-Feb-17 05:30N 46°51' E 031°58'51103.1
2018-Feb-17 05:00N 46°31' E 030°50'5112270.9
2018-Feb-17 05:00N 46°51' E 031°58'607761802.4
2018-Feb-17 04:54N 29°33' W 095°02'603715197.8
2018-Feb-17 04:30N 46°30' E 030°53'5012020.0
2018-Feb-17 04:30N 46°51' E 031°58'6077397782.1
2018-Feb-17 04:29N 29°33' W 095°02'603912589.0
2018-Feb-17 04:00N 46°29' E 030°55'499275.7
2018-Feb-17 04:00N 46°51' E 031°58'607733452.7
2018-Feb-17 03:49N 29°33' W 095°02'0 0.0
2018-Feb-17 03:30N 29°33' W 095°02'60774375612.2
2018-Feb-17 03:30N 46°51' E 031°58'607712188.3
2018-Feb-17 03:00N 29°33' W 095°02'60774375615.6
2018-Feb-17 03:00N 46°51' E 031°58'0 0.0
2018-Feb-17 02:30N 46°51' E 031°58'607730684.6
2018-Feb-17 02:18N 29°33' W 095°02'607720145.6
2018-Feb-17 02:00N 46°51' E 031°58'607749386.2
2018-Feb-17 01:52N 29°33' W 095°02'607716122.4
2018-Feb-17 01:30N 46°51' E 031°58'6077257389.2
2018-Feb-17 01:28N 29°33' W 095°02'607712756.9
2018-Feb-17 01:00N 46°51' E 031°58'607749164.2
2018-Feb-17 00:52N 29°33' W 095°02'607716146.2
2018-Feb-17 00:30N 46°51' E 031°58'6077911585.4
2018-Feb-17 00:29N 29°33' W 095°02'607712311.8
2018-Feb-17 00:00N 46°51' E 031°58'6077951220.8
2018-Feb-16 23:59N 29°33' W 095°02'607712318.7
2018-Feb-16 23:30N 46°51' E 031°58'6077107773.8
2018-Feb-16 23:26N 29°33' W 095°02'607713690.9
2018-Feb-16 23:00N 46°51' E 031°58'607757272.4
2018-Feb-16 22:53N 29°33' W 095°02'607715439.7
2018-Feb-16 22:30N 46°51' E 031°58'6077106722.4
2018-Feb-16 22:26N 29°33' W 095°02'607713708.1
2018-Feb-16 22:00N 46°51' E 031°58'6077951218.7
2018-Feb-16 21:59N 29°33' W 095°02'607712311.8
2018-Feb-16 21:30N 46°51' E 031°58'0 0.0
2018-Feb-16 21:00N 46°51' E 031°58'607757122.9
2018-Feb-16 20:53N 29°33' W 095°02'607715439.7
2018-Feb-16 20:30N 46°51' E 031°58'607738722.3
2018-Feb-16 20:20N 29°33' W 095°02'607717700.7
2018-Feb-16 20:00N 46°51' E 031°58'6077994457.3
2018-Feb-16 19:59N 29°33' W 095°02'607712311.8
2018-Feb-16 19:30N 46°51' E 031°58'6077875123.8
2018-Feb-16 19:29N 29°33' W 095°02'607712325.7
2018-Feb-16 19:00N 46°51' E 031°58'0 0.0
2018-Feb-16 18:30N 46°51' E 031°58'0 0.0
2018-Feb-16 18:00N 46°51' E 031°58'0 0.0
2018-Feb-16 17:30N 46°51' E 031°58'0 0.0
2018-Feb-16 17:00N 46°51' E 031°58'0 0.0
2018-Feb-16 16:24N 46°51' E 031°58'0 0.0
2018-Feb-16 16:00N 46°51' E 031°58'0 0.0
2018-Feb-16 15:30N 46°51' E 031°58'0 0.0
2018-Feb-16 15:00N 46°51' E 031°58'0 0.0
2018-Feb-16 14:30N 46°51' E 031°58'0 0.0
2018-Feb-16 14:00N 46°51' E 031°58'0 0.0
2018-Feb-16 13:30N 46°51' E 031°58'53162.3
2018-Feb-16 13:10N 46°22' E 030°53'53313.2
2018-Feb-16 13:00N 46°51' E 031°58'0 0.0
2018-Feb-16 12:30N 46°51' E 031°58'54159.3
2018-Feb-16 12:10N 46°25' E 030°50'54328.6
2018-Feb-16 12:00N 46°51' E 031°58'531209.2
2018-Feb-16 11:57N 46°26' E 030°50'53117.2
2018-Feb-16 11:30N 46°51' E 031°58'532790.0
2018-Feb-16 11:29N 46°28' E 030°48'53111.2
2018-Feb-16 11:00N 46°51' E 031°58'545403.4
2018-Feb-16 10:59N 46°30' E 030°46'54110.3
2018-Feb-16 10:30N 46°51' E 031°58'5566189.1
2018-Feb-16 10:30N 46°29' E 030°45'0 0.0
2018-Feb-16 10:00N 46°29' E 030°45'5518058.9
2018-Feb-16 10:00N 46°51' E 031°58'0 0.0
2018-Feb-16 09:30N 46°51' E 031°58'551182.3
2018-Feb-16 09:27N 46°29' E 030°45'55121.6
2018-Feb-16 09:00N 46°51' E 031°58'554226.2
2018-Feb-16 08:59N 46°29' E 030°45'0 0.0
2018-Feb-16 08:30N 46°29' E 030°45'5518057.3
2018-Feb-16 08:30N 46°51' E 031°58'55111.1
2018-Feb-16 08:00N 46°29' E 030°45'5516552.5
2018-Feb-16 08:00N 46°51' E 031°58'0 0.0
2018-Feb-16 07:30N 46°51' E 031°58'554053.7
2018-Feb-16 07:29N 46°29' E 030°45'55113.4
2018-Feb-16 07:00N 46°51' E 031°58'554226.2
2018-Feb-16 06:59N 46°29' E 030°45'55113.3
2018-Feb-16 06:30N 46°51' E 031°58'554226.4
2018-Feb-16 06:29N 46°29' E 030°45'55113.3
2018-Feb-16 06:00N 46°51' E 031°58'55871.2
2018-Feb-16 05:56N 46°29' E 030°45'55126.4
2018-Feb-16 05:30N 46°51' E 031°58'551418.9
2018-Feb-16 05:27N 46°29' E 030°45'0 0.0
2018-Feb-16 05:00N 46°29' E 030°45'55348.5
2018-Feb-16 04:51N 46°51' E 031°58'0 0.0
2018-Feb-16 04:30N 46°51' E 031°58'551342.2
2018-Feb-16 04:27N 46°29' E 030°45'0 0.0
2018-Feb-16 04:00N 46°29' E 030°45'556621.0
2018-Feb-16 04:00N 46°51' E 031°58'55112.5
2018-Feb-16 03:30N 46°29' E 030°45'555842.1
2018-Feb-16 03:30N 46°51' E 031°58'55112.5
2018-Feb-16 03:00N 46°29' E 030°45'556019.1
2018-Feb-16 03:00N 46°51' E 031°58'55112.4
2018-Feb-16 02:30N 46°29' E 030°45'555842.1
2018-Feb-16 02:30N 46°51' E 031°58'55112.6
2018-Feb-16 02:00N 46°29' E 030°45'555517.8
2018-Feb-16 02:00N 46°51' E 031°58'0 0.0
2018-Feb-16 01:30N 46°51' E 031°58'55609.3
2018-Feb-16 01:24N 46°29' E 030°45'0 0.0
2018-Feb-16 01:00N 46°29' E 030°45'555842.1
2018-Feb-16 01:00N 46°51' E 031°58'0 0.0
2018-Feb-16 00:30N 46°51' E 031°58'551389.1
2018-Feb-16 00:27N 46°29' E 030°45'55119.9
2018-Feb-16 00:00N 46°51' E 031°58'551379.4
2018-Feb-15 23:57N 46°29' E 030°45'55119.9
2018-Feb-15 23:30N 46°51' E 031°58'55290.8
2018-Feb-15 23:18N 46°29' E 030°45'0 0.0
2018-Feb-15 23:00N 46°29' E 030°45'555675.2
2018-Feb-15 23:00N 46°51' E 031°58'55112.6
2018-Feb-15 22:30N 46°29' E 030°45'555368.4
2018-Feb-15 22:30N 46°51' E 031°58'55112.7
2018-Feb-15 22:00N 46°29' E 030°45'555517.5
2018-Feb-15 22:00N 46°51' E 031°58'55112.6
2018-Feb-15 21:30N 46°29' E 030°45'555517.5
2018-Feb-15 21:30N 46°51' E 031°58'0 0.0
2018-Feb-15 21:00N 46°51' E 031°58'551389.0
2018-Feb-15 20:57N 46°29' E 030°45'55119.9
2018-Feb-15 20:30N 46°51' E 031°58'55615.0
2018-Feb-15 20:24N 46°29' E 030°45'0 0.0
2018-Feb-15 20:00N 46°29' E 030°45'555093.3
2018-Feb-15 20:00N 46°51' E 031°58'55112.7
2018-Feb-15 19:30N 46°29' E 030°45'555227.3
2018-Feb-15 19:30N 46°51' E 031°58'607728193.4
2018-Feb-15 19:17N 29°33' W 095°02'607721386.2
2018-Feb-15 19:00N 46°51' E 031°58'6077185407.3
2018-Feb-15 18:58N 29°33' W 095°02'6031943974.8
2018-Feb-15 18:57N 46°29' E 030°45'0 0.0
2018-Feb-15 18:30N 46°29' E 030°45'60314342282.3
2018-Feb-15 18:30N 29°33' W 095°02'6077662972.1
2018-Feb-15 18:30N 46°51' E 031°58'55112.8
2018-Feb-15 18:00N 46°29' E 030°45'554965.8
2018-Feb-15 18:00N 46°51' E 031°58'607730641.5
2018-Feb-15 17:48N 29°33' W 095°02'603120796.3
2018-Feb-15 17:31N 46°29' E 030°45'554844.8
2018-Feb-15 17:30N 46°51' E 031°58'55112.8
2018-Feb-15 17:00N 46°29' E 030°45'555093.3
2018-Feb-15 17:00N 46°51' E 031°58'607740665.6
2018-Feb-15 16:51N 29°33' W 095°02'607717336.1
2018-Feb-15 16:30N 46°51' E 031°58'551408.8
2018-Feb-15 16:27N 46°29' E 030°45'603132747.2
2018-Feb-15 16:16N 29°33' W 095°02'603122687.0
2018-Feb-15 16:00N 46°29' E 030°45'555093.3
2018-Feb-15 16:00N 46°51' E 031°58'607738517.7
2018-Feb-15 15:50N 29°33' W 095°02'603118260.2
2018-Feb-15 15:31N 46°29' E 030°45'554619.3
2018-Feb-15 15:30N 46°51' E 031°58'6077781360.5
2018-Feb-15 15:29N 29°33' W 095°02'603112542.7
2018-Feb-15 15:01N 46°29' E 030°45'554729.7
2018-Feb-15 15:00N 46°51' E 031°58'607723626.4
2018-Feb-15 14:44N 29°33' W 095°02'603126064.2
2018-Feb-15 14:30N 46°29' E 030°45'554844.9
2018-Feb-15 14:30N 46°51' E 031°58'55112.9
2018-Feb-15 14:00N 46°29' E 030°45'554965.8
2018-Feb-15 14:00N 46°51' E 031°58'6077781359.9
2018-Feb-15 13:59N 29°33' W 095°02'603112535.5
2018-Feb-15 13:30N 46°29' E 030°45'554844.6
2018-Feb-15 13:30N 46°51' E 031°58'607746059.1
2018-Feb-15 13:22N 29°33' W 095°02'607716511.7
2018-Feb-15 13:00N 46°51' E 031°58'551460.6
2018-Feb-15 12:58N 46°29' E 030°45'6031571352.4
2018-Feb-15 12:57N 29°33' W 095°02'603113706.7
2018-Feb-15 12:31N 46°29' E 030°45'554729.7
2018-Feb-15 12:30N 46°51' E 031°58'607792312.5
2018-Feb-15 12:26N 29°33' W 095°02'603114274.4
2018-Feb-15 12:01N 46°29' E 030°45'554844.6
2018-Feb-15 12:00N 46°51' E 031°58'607722861.1
2018-Feb-15 11:44N 29°33' W 095°02'603127105.4
2018-Feb-15 11:31N 46°29' E 030°45'554619.3
2018-Feb-15 11:30N 46°51' E 031°58'607728229.8
2018-Feb-15 11:17N 29°33' W 095°02'607721344.5
2018-Feb-15 11:00N 46°51' E 031°58'6077810298.6
2018-Feb-15 10:59N 29°33' W 095°02'6031199187.2
2018-Feb-15 10:58N 46°29' E 030°45'603113319.9
2018-Feb-15 10:30N 29°33' W 095°02'6077662971.0
2018-Feb-15 10:30N 46°51' E 031°58'551449.9
2018-Feb-15 10:28N 46°29' E 030°45'603113311.7
2018-Feb-15 10:00N 29°33' W 095°02'6077683689.1
2018-Feb-15 10:00N 46°51' E 031°58'551449.9
2018-Feb-15 09:58N 46°29' E 030°45'55119.4
2018-Feb-15 09:30N 46°51' E 031°58'551460.5
2018-Feb-15 09:28N 46°29' E 030°45'60312171144.4
2018-Feb-15 09:27N 29°33' W 095°02'607713227.4
2018-Feb-15 09:00N 46°51' E 031°58'551460.5
2018-Feb-15 08:58N 46°29' E 030°45'60311973768.0
2018-Feb-15 08:57N 29°33' W 095°02'607713235.4
2018-Feb-15 08:30N 46°51' E 031°58'551493.5
2018-Feb-15 08:28N 46°29' E 030°45'55119.2
2018-Feb-15 08:00N 46°51' E 031°58'551493.5
2018-Feb-15 07:58N 46°29' E 030°45'603129620.0
2018-Feb-15 07:45N 29°33' W 095°02'607723424.1
2018-Feb-15 07:30N 46°51' E 031°58'551482.4
2018-Feb-15 07:28N 46°29' E 030°45'55119.2
2018-Feb-15 07:00N 46°51' E 031°58'55401.3
2018-Feb-15 06:52N 46°29' E 030°45'603113544.2
2018-Feb-15 06:25N 29°33' W 095°02'60311277142.9
2018-Feb-15 06:25N 46°29' E 030°45'554514.3
2018-Feb-15 06:24N 46°51' E 031°58'607715527.4
2018-Feb-15 06:00N 29°33' W 095°02'6077683688.9
2018-Feb-15 06:00N 46°51' E 031°58'551482.3
2018-Feb-15 05:58N 46°29' E 030°45'55119.2
2018-Feb-15 05:30N 46°51' E 031°58'55632.6
2018-Feb-15 05:25N 46°29' E 030°45'603117884.2
2018-Feb-15 05:04N 29°33' W 095°02'607780434.0
2018-Feb-15 05:00N 46°51' E 031°58'607781634.6
2018-Feb-15 04:55N 29°33' W 095°02'6031482475.4
2018-Feb-15 04:55N 46°29' E 030°45'55133.6
2018-Feb-15 04:30N 46°51' E 031°58'551482.4
2018-Feb-15 04:28N 46°29' E 030°45'603123023.7
2018-Feb-15 04:12N 29°33' W 095°02'0 0.1
2018-Feb-15 04:00N 29°33' W 095°02'6077683689.9
2018-Feb-15 04:00N 46°51' E 031°58'55634.6
2018-Feb-15 03:55N 46°29' E 030°45'55133.6
2018-Feb-15 03:30N 46°51' E 031°58'551493.5
2018-Feb-15 03:28N 46°29' E 030°45'603117041.9
2018-Feb-15 03:06N 29°33' W 095°02'0 0.0
2018-Feb-15 03:00N 29°33' W 095°02'6077705743.9
2018-Feb-15 03:00N 46°51' E 031°58'551493.5
2018-Feb-15 02:58N 46°29' E 030°45'55119.2
2018-Feb-15 02:30N 46°51' E 031°58'551504.8
2018-Feb-15 02:28N 46°29' E 030°45'603157743.1
2018-Feb-15 02:21N 29°33' W 095°02'0 0.0
2018-Feb-15 02:00N 29°33' W 095°02'6077643473.4
2018-Feb-15 02:00N 46°51' E 031°58'55634.6
2018-Feb-15 01:55N 46°29' E 030°45'55133.6
2018-Feb-15 01:30N 46°51' E 031°58'6077183849.2
2018-Feb-15 01:28N 29°33' W 095°02'6031112494.3
2018-Feb-15 01:25N 46°29' E 030°45'55133.4
2018-Feb-15 01:00N 46°51' E 031°58'6077185407.1
2018-Feb-15 00:58N 29°33' W 095°02'60311550812.6
2018-Feb-15 00:58N 46°29' E 030°45'55119.2
2018-Feb-15 00:30N 46°51' E 031°58'551504.8
2018-Feb-15 00:28N 46°29' E 030°45'603153344.9
2018-Feb-15 00:21N 29°33' W 095°02'607717349.7
2018-Feb-15 00:00N 46°51' E 031°58'551504.8
2018-Feb-14 23:58N 46°29' E 030°45'603153345.0
2018-Feb-14 23:51N 29°33' W 095°02'607717336.0
2018-Feb-14 23:30N 46°51' E 031°58'551551.9
2018-Feb-14 23:28N 46°29' E 030°45'603113008.6
2018-Feb-14 23:00N 29°33' W 095°02'60777292687.1
2018-Feb-14 23:00N 46°51' E 031°58'551527.9
2018-Feb-14 22:58N 46°29' E 030°45'603113024.3
2018-Feb-14 22:30N 29°33' W 095°02'60777292704.3
2018-Feb-14 22:30N 46°51' E 031°58'55644.9
2018-Feb-14 22:25N 46°29' E 030°45'55133.1
2018-Feb-14 22:00N 46°51' E 031°58'551539.8
2018-Feb-14 21:58N 46°29' E 030°45'6031452321.0
2018-Feb-14 21:57N 29°33' W 095°02'607713480.0
2018-Feb-14 21:30N 46°51' E 031°58'6077781358.1
2018-Feb-14 21:29N 29°33' W 095°02'6031214964.0
2018-Feb-14 21:28N 46°29' E 030°45'55118.9
2018-Feb-14 21:00N 46°51' E 031°58'55407.0
2018-Feb-14 20:52N 46°29' E 030°45'6031271392.4
2018-Feb-14 20:50N 29°33' W 095°02'607717772.6
2018-Feb-14 20:30N 46°51' E 031°58'551527.9
2018-Feb-14 20:28N 46°29' E 030°45'603184152.8
2018-Feb-14 20:23N 29°33' W 095°02'607715483.4
2018-Feb-14 20:00N 46°51' E 031°58'551551.8
2018-Feb-14 19:58N 46°29' E 030°45'603157286.1
2018-Feb-14 19:51N 29°33' W 095°02'607716933.5
2018-Feb-14 19:30N 46°51' E 031°58'551539.8
2018-Feb-14 19:28N 46°29' E 030°45'603119737.6
2018-Feb-14 19:09N 29°33' W 095°02'607738315.3
2018-Feb-14 19:00N 46°51' E 031°58'55644.9
2018-Feb-14 18:55N 46°29' E 030°45'60311033875.8
2018-Feb-14 18:54N 29°33' W 095°02'0 0.0
2018-Feb-14 18:30N 29°33' W 095°02'6077683689.9
2018-Feb-14 18:30N 46°51' E 031°58'55299.1
2018-Feb-14 18:19N 46°29' E 030°45'55174.9
2018-Feb-14 18:00N 46°51' E 031°58'551564.0
2018-Feb-14 17:58N 46°29' E 030°45'55118.7
2018-Feb-14 17:30N 46°51' E 031°58'55297.8
2018-Feb-14 17:19N 46°29' E 030°45'55175.5
2018-Feb-14 17:00N 46°51' E 031°58'6077729269.9
2018-Feb-14 16:59N 29°33' W 095°02'6031223829.2
2018-Feb-14 16:58N 46°29' E 030°45'55118.7
2018-Feb-14 16:30N 46°51' E 031°58'551564.0
2018-Feb-14 16:28N 46°29' E 030°45'603125158.0
2018-Feb-14 16:13N 29°33' W 095°02'607727009.9
2018-Feb-14 16:00N 46°51' E 031°58'607752215.0
2018-Feb-14 15:53N 29°33' W 095°02'6031319285.4
2018-Feb-14 15:52N 46°29' E 030°45'55151.2
2018-Feb-14 15:30N 46°51' E 031°58'607792312.5
2018-Feb-14 15:26N 29°33' W 095°02'603127552.6
2018-Feb-14 15:13N 46°29' E 030°45'55256.3
2018-Feb-14 15:00N 46°51' E 031°58'551576.4
2018-Feb-14 14:58N 46°29' E 030°45'55118.7
2018-Feb-14 14:30N 46°51' E 031°58'55655.5
2018-Feb-14 14:25N 46°29' E 030°45'55132.8
2018-Feb-14 14:00N 46°51' E 031°58'5513242.0
2018-Feb-14 14:00N 46°29' E 030°45'55111.2
2018-Feb-14 13:30N 46°51' E 031°58'5515279.9
2018-Feb-14 13:30N 46°29' E 030°45'55111.2
2018-Feb-14 13:00N 46°51' E 031°58'551008.3
2018-Feb-14 12:57N 46°29' E 030°45'55123.8
2018-Feb-14 12:30N 46°51' E 031°58'5515279.3
2018-Feb-14 12:30N 46°29' E 030°45'0 0.0
2018-Feb-14 12:00N 46°29' E 030°45'603115098.3
2018-Feb-14 11:36N 29°33' W 095°02'607760603.9
2018-Feb-14 11:30N 46°51' E 031°58'551109.7
2018-Feb-14 11:27N 46°29' E 030°45'55122.5
2018-Feb-14 11:00N 46°51' E 031°58'607712353.5
2018-Feb-14 10:30N 29°33' W 095°02'6077729267.0
2018-Feb-14 10:30N 46°51' E 031°58'55553.3
2018-Feb-14 10:24N 46°29' E 030°45'0 0.0
2018-Feb-14 10:00N 46°29' E 030°45'559931.5
2018-Feb-14 10:00N 46°51' E 031°58'6077754415.9
2018-Feb-14 09:59N 29°33' W 095°02'603112399.4
2018-Feb-14 09:30N 46°29' E 030°45'559932.0
2018-Feb-14 09:30N 46°51' E 031°58'607716986.1
2018-Feb-14 09:08N 29°33' W 095°02'603144128.9
2018-Feb-14 09:00N 46°29' E 030°45'559931.5
2018-Feb-14 09:00N 46°51' E 031°58'607718247.0
2018-Feb-14 08:40N 29°33' W 095°02'603137369.1
2018-Feb-14 08:30N 46°29' E 030°45'5510454.7
2018-Feb-14 08:30N 46°51' E 031°58'6077370815.0
2018-Feb-14 08:29N 29°33' W 095°02'607712559.2
2018-Feb-14 08:00N 46°51' E 031°58'55298.2
2018-Feb-14 07:49N 46°29' E 030°45'603145804.7
2018-Feb-14 07:41N 29°33' W 095°02'607733148.6
2018-Feb-14 07:30N 46°51' E 031°58'551589.0
2018-Feb-14 07:28N 46°29' E 030°45'603181929.8
2018-Feb-14 07:23N 29°33' W 095°02'607715516.3
2018-Feb-14 07:00N 46°51' E 031°58'6077183849.3
2018-Feb-14 06:58N 29°33' W 095°02'60315427852.5
2018-Feb-14 06:58N 46°29' E 030°45'55118.4
2018-Feb-14 06:30N 46°51' E 031°58'551614.9
2018-Feb-14 06:28N 46°29' E 030°45'603173349.4
2018-Feb-14 06:23N 29°33' W 095°02'607715842.2
2018-Feb-14 06:00N 46°51' E 031°58'55657.7
2018-Feb-14 05:55N 46°29' E 030°45'603160646.4
2018-Feb-14 05:49N 29°33' W 095°02'607719208.2
2018-Feb-14 05:30N 46°51' E 031°58'551614.9
2018-Feb-14 05:28N 46°29' E 030°45'603181622.0
2018-Feb-14 05:23N 29°33' W 095°02'607715505.4
2018-Feb-14 05:00N 46°51' E 031°58'559458.6
2018-Feb-14 04:59N 46°29' E 030°45'55111.7
2018-Feb-14 04:30N 46°51' E 031°58'55993.2
2018-Feb-14 04:26N 46°29' E 030°45'603113837.7
2018-Feb-14 04:00N 29°33' W 095°02'6077705744.1
2018-Feb-14 04:00N 46°51' E 031°58'5510454.7
2018-Feb-14 04:00N 46°29' E 030°45'55111.5
2018-Feb-14 03:30N 46°51' E 031°58'5511685.1
2018-Feb-14 03:30N 46°29' E 030°45'603150257.9
2018-Feb-14 03:22N 29°33' W 095°02'607716194.0
2018-Feb-14 03:00N 46°51' E 031°58'5510454.2
2018-Feb-14 02:59N 46°29' E 030°45'603135534.2
2018-Feb-14 02:49N 29°33' W 095°02'607718699.2
2018-Feb-14 02:30N 46°51' E 031°58'5511035.5
2018-Feb-14 02:30N 46°29' E 030°45'603186499.8
2018-Feb-14 02:25N 29°33' W 095°02'607714299.4
2018-Feb-14 02:00N 46°51' E 031°58'5510454.7
2018-Feb-14 02:00N 46°29' E 030°45'603135476.2
2018-Feb-14 01:49N 29°33' W 095°02'607718699.2
2018-Feb-14 01:30N 46°51' E 031°58'551023.9
2018-Feb-14 01:27N 46°29' E 030°45'603168706.8
2018-Feb-14 01:21N 29°33' W 095°02'607716959.7
2018-Feb-14 01:00N 46°51' E 031°58'5514188.5
2018-Feb-14 01:00N 46°29' E 030°45'603153476.4
2018-Feb-14 00:53N 29°33' W 095°02'607715865.2
2018-Feb-14 00:30N 46°51' E 031°58'5513242.0
2018-Feb-14 00:30N 46°29' E 030°45'603157743.1
2018-Feb-14 00:23N 29°33' W 095°02'607715516.4
2018-Feb-14 00:00N 46°51' E 031°58'5514188.5
2018-Feb-14 00:00N 46°29' E 030°45'603119827.8
2018-Feb-13 23:41N 29°33' W 095°02'607731707.4
2018-Feb-13 23:30N 46°51' E 031°58'5511684.1
2018-Feb-13 23:30N 46°29' E 030°45'603129619.9
2018-Feb-13 23:17N 29°33' W 095°02'607720836.2
2018-Feb-13 23:00N 46°51' E 031°58'5512414.9
2018-Feb-13 23:00N 46°29' E 030°45'6031110772.6
2018-Feb-13 22:56N 29°33' W 095°02'607713768.5
2018-Feb-13 22:30N 46°51' E 031°58'5514187.9
2018-Feb-13 22:30N 46°29' E 030°45'60311356963.1
2018-Feb-13 22:29N 29°33' W 095°02'0 0.0
2018-Feb-13 22:00N 29°33' W 095°02'6077683688.9
2018-Feb-13 22:00N 46°51' E 031°58'551018.6
2018-Feb-13 21:57N 46°29' E 030°45'55123.8
2018-Feb-13 21:30N 46°51' E 031°58'5513242.0
2018-Feb-13 21:30N 46°29' E 030°45'603124505.0
2018-Feb-13 21:15N 29°33' W 095°02'607724308.9
2018-Feb-13 21:00N 46°51' E 031°58'5513242.6
2018-Feb-13 21:00N 46°29' E 030°45'603120405.5
2018-Feb-13 20:42N 29°33' W 095°02'607730344.1
2018-Feb-13 20:30N 46°51' E 031°58'5514187.9
2018-Feb-13 20:30N 46°29' E 030°45'603162749.8
2018-Feb-13 20:24N 29°33' W 095°02'607715193.1
2018-Feb-13 20:00N 46°51' E 031°58'5516553.2
2018-Feb-13 20:00N 46°29' E 030°45'6031443090.4
2018-Feb-13 19:59N 29°33' W 095°02'607712580.8
2018-Feb-13 19:30N 46°51' E 031°58'5514186.9
2018-Feb-13 19:30N 46°29' E 030°45'60311356964.3
2018-Feb-13 19:29N 29°33' W 095°02'607712360.5
2018-Feb-13 19:00N 46°51' E 031°58'5515279.3
2018-Feb-13 19:00N 46°29' E 030°45'6031110772.5
2018-Feb-13 18:56N 29°33' W 095°02'607713759.8
2018-Feb-13 18:30N 46°51' E 031°58'5516553.2
2018-Feb-13 18:30N 46°29' E 030°45'603136861.4
2018-Feb-13 18:20N 29°33' W 095°02'0 0.0
2018-Feb-13 18:00N 29°33' W 095°02'6077729269.3
2018-Feb-13 18:00N 46°51' E 031°58'5514187.9
2018-Feb-13 18:00N 46°29' E 030°45'55111.2
2018-Feb-13 17:30N 46°51' E 031°58'6077145853.7
2018-Feb-13 17:27N 29°33' W 095°02'6031137413.9
2018-Feb-13 17:25N 46°29' E 030°45'55133.1
2018-Feb-13 17:00N 46°51' E 031°58'551527.9
2018-Feb-13 16:58N 46°29' E 030°45'603129339.7
2018-Feb-13 16:45N 29°33' W 095°02'603123832.5
2018-Feb-13 16:30N 46°29' E 030°45'5511035.0
2018-Feb-13 16:30N 46°51' E 031°58'607745484.6
2018-Feb-13 16:22N 29°33' W 095°02'603116765.8
2018-Feb-13 16:00N 46°30' E 030°45'558244.9
2018-Feb-13 16:00N 46°51' E 031°58'607765897.7
2018-Feb-13 15:54N 29°33' W 095°02'607714893.2
2018-Feb-13 15:30N 46°51' E 031°58'5348076.9
2018-Feb-13 15:30N 46°30' E 030°47'603356119.6
2018-Feb-13 15:23N 29°33' W 095°02'607715538.4
2018-Feb-13 15:00N 46°51' E 031°58'5246466.9
2018-Feb-13 15:00N 46°29' E 030°51'6036104973.9
2018-Feb-13 14:56N 29°33' W 095°02'607713759.8
2018-Feb-13 14:30N 46°51' E 031°58'5118394.7
2018-Feb-13 14:30N 46°28' E 030°52'603729369.5
2018-Feb-13 14:17N 29°33' W 095°02'607720836.3
2018-Feb-13 14:00N 46°51' E 031°58'51650.8
2018-Feb-13 13:55N 46°28' E 030°52'6037157492.9
2018-Feb-13 13:53N 29°33' W 095°02'607715865.2
2018-Feb-13 13:30N 46°51' E 031°58'6077143934.5
2018-Feb-13 13:27N 29°33' W 095°02'6037110881.5
2018-Feb-13 13:24N 46°29' E 030°52'0 0.0
2018-Feb-13 13:00N 46°29' E 030°52'5115268.5
2018-Feb-13 13:00N 46°51' E 031°58'51102.5
2018-Feb-13 12:30N 46°29' E 030°52'5113086.6
2018-Feb-13 12:30N 46°51' E 031°58'0 0.0
2018-Feb-13 12:00N 46°51' E 031°58'51114.1
2018-Feb-13 11:33N 46°29' E 030°52'51944.5
2018-Feb-13 11:30N 46°51' E 031°58'51349.7
2018-Feb-13 11:21N 46°29' E 030°52'603720937.2
2018-Feb-13 11:04N 29°33' W 095°02'607791924.7
2018-Feb-13 11:00N 46°51' E 031°58'0 0.0
2018-Feb-13 10:30N 46°51' E 031°58'51102.6
2018-Feb-13 10:00N 46°29' E 030°52'5113090.4
2018-Feb-13 10:00N 46°51' E 031°58'0 0.0
2018-Feb-13 09:30N 46°51' E 031°58'51529.7
2018-Feb-13 09:24N 46°29' E 030°52'51126.0
2018-Feb-13 09:00N 46°51' E 031°58'511124.3
2018-Feb-13 08:57N 46°29' E 030°52'0 0.0
2018-Feb-13 08:30N 46°29' E 030°52'5111454.7
2018-Feb-13 08:30N 46°51' E 031°58'0 0.0
2018-Feb-13 08:00N 46°51' E 031°58'511131.3
2018-Feb-13 07:57N 46°29' E 030°52'0 0.0
2018-Feb-13 07:30N 46°29' E 030°52'5111454.4
2018-Feb-13 07:30N 46°51' E 031°58'51102.7
2018-Feb-13 07:00N 46°29' E 030°52'5111453.0
2018-Feb-13 07:00N 46°51' E 031°58'0 0.0
2018-Feb-13 06:30N 46°51' E 031°58'0 0.0
2018-Feb-13 06:00N 46°51' E 031°58'0 0.0
2018-Feb-13 05:30N 46°51' E 031°58'0 0.0
2018-Feb-13 05:00N 46°51' E 031°58'0 0.0
2018-Feb-13 04:30N 46°51' E 031°58'0 0.0
2018-Feb-13 04:00N 46°51' E 031°58'0 0.0
2018-Feb-13 03:30N 46°51' E 031°58'0 0.0
2018-Feb-13 03:00N 46°51' E 031°58'0 0.0
2018-Feb-13 02:30N 46°51' E 031°58'0 0.0
2018-Feb-13 02:00N 46°51' E 031°58'6077144887.9
2018-Feb-13 01:57N 29°33' W 095°02'607713267.5
2018-Feb-13 01:30N 46°51' E 031°58'0 0.0
2018-Feb-13 01:00N 46°51' E 031°58'0 0.0
2018-Feb-13 00:30N 46°51' E 031°58'0 0.0
2018-Feb-13 00:00N 46°51' E 031°58'0 0.0
2018-Feb-12 23:30N 46°51' E 031°58'0 0.0
2018-Feb-12 23:00N 46°51' E 031°58'0 0.0
2018-Feb-12 22:30N 46°51' E 031°58'607722742.3
2018-Feb-12 22:14N 29°33' W 095°02'607726138.7
2018-Feb-12 22:00N 46°51' E 031°58'607751721.1
2018-Feb-12 21:53N 29°33' W 095°02'607715876.7
2018-Feb-12 21:30N 46°51' E 031°58'6077683690.0
2018-Feb-12 21:29N 29°33' W 095°02'607712374.5
2018-Feb-12 21:00N 46°51' E 031°58'607740365.5
2018-Feb-12 20:51N 29°33' W 095°02'607717391.2
2018-Feb-12 20:30N 46°51' E 031°58'607760270.2
2018-Feb-12 20:24N 29°33' W 095°02'607715224.8
2018-Feb-12 20:00N 46°51' E 031°58'607720257.5
2018-Feb-12 19:42N 29°33' W 095°02'607730386.2
2018-Feb-12 19:30N 46°51' E 031°58'6077120209.2
2018-Feb-12 19:27N 29°33' W 095°02'607713521.7
2018-Feb-12 19:00N 46°51' E 031°58'607710939038.2
2018-Feb-12 19:00N 29°33' W 095°02'607712168.0
2018-Feb-12 18:30N 46°51' E 031°58'607772443.9
2018-Feb-12 18:25N 29°33' W 095°02'607714604.8
2018-Feb-12 18:00N 46°51' E 031°58'607710939017.6
2018-Feb-12 18:00N 29°33' W 095°02'607712174.8
2018-Feb-12 17:30N 46°51' E 031°58'6077119552.3
2018-Feb-12 17:27N 29°33' W 095°02'607713530.0
2018-Feb-12 17:00N 46°51' E 031°58'0 0.7
2018-Feb-12 16:30N 46°51' E 031°59'1 1.1
2018-Feb-12 16:01N 46°51' E 031°58'0 0.2
2018-Feb-12 15:16N 46°51' E 031°58'607728673.8
2018-Feb-12 15:04N 29°33' W 095°02'607769016.1
2018-Feb-12 14:58N 46°51' E 031°58'48355.2
2018-Feb-12 14:50N 46°32' E 030°55'2 4.5
2018-Feb-12 14:30N 46°31' E 030°53'492035.5
2018-Feb-12 14:28N 46°51' E 031°58'51105.2
2018-Feb-12 13:59N 46°29' E 030°52'513053.2
2018-Feb-12 13:58N 46°51' E 031°58'51109.0
2018-Feb-12 13:30N 46°29' E 030°52'51627.6
2018-Feb-12 13:25N 46°51' E 031°58'0 0.0
2018-Feb-12 12:58N 46°51' E 031°58'0 0.0
2018-Feb-12 12:28N 46°51' E 031°58'0 0.0
2018-Feb-12 11:58N 46°51' E 031°58'0 0.0
2018-Feb-12 11:28N 46°51' E 031°58'0 0.0
2018-Feb-12 10:58N 46°51' E 031°58'0 0.0
2018-Feb-12 10:28N 46°51' E 031°58'0 0.0
2018-Feb-12 09:58N 46°51' E 031°58'607797669.9
2018-Feb-12 09:55N 29°33' W 095°02'607713882.0
2018-Feb-12 09:28N 46°51' E 031°58'6077299699.9
2018-Feb-12 09:27N 29°33' W 095°02'607712668.3
2018-Feb-12 08:58N 46°51' E 031°58'0 0.0
2018-Feb-12 08:28N 46°51' E 031°58'0 0.0
2018-Feb-12 07:58N 46°51' E 031°58'0 0.0
2018-Feb-12 07:28N 46°51' E 031°58'0 0.0
2018-Feb-12 06:58N 46°51' E 031°58'0 0.0
2018-Feb-12 06:28N 46°51' E 031°58'0 0.0
2018-Feb-12 05:58N 46°51' E 031°58'0 0.0
2018-Feb-12 05:28N 46°51' E 031°58'607777035.5
2018-Feb-12 05:24N 29°33' W 095°02'607814713.7
2018-Feb-12 04:59N 46°51' E 031°59'0 0.6
2018-Feb-12 04:29N 46°51' E 031°58'0 0.0
2018-Feb-12 03:59N 46°51' E 031°58'0 0.0
2018-Feb-12 03:29N 46°51' E 031°58'0 0.0
2018-Feb-12 02:59N 46°51' E 031°58'0 0.2
2018-Feb-12 02:29N 46°51' E 031°59'0 0.2
2018-Feb-12 01:59N 46°51' E 031°58'0 0.0
2018-Feb-12 01:29N 46°51' E 031°58'51953.7
2018-Feb-12 01:25N 46°28' E 030°52'51114.5
2018-Feb-12 00:59N 46°51' E 031°58'0 0.0
2018-Feb-12 00:29N 46°51' E 031°58'0 0.0
2018-Feb-11 23:59N 46°51' E 031°58'0 0.0
2018-Feb-11 23:29N 46°51' E 031°58'0 0.0
2018-Feb-11 22:59N 46°51' E 031°58'0 0.0
2018-Feb-11 22:29N 46°51' E 031°58'0 0.0
2018-Feb-11 21:59N 46°51' E 031°58'0 0.0
2018-Feb-11 21:29N 46°51' E 031°58'0 0.0
2018-Feb-11 20:59N 46°51' E 031°58'0 0.0
2018-Feb-11 20:29N 46°51' E 031°58'0 0.0
2018-Feb-11 19:59N 46°51' E 031°58'0 0.0
2018-Feb-11 19:29N 46°51' E 031°58'0 0.0
2018-Feb-11 18:59N 46°51' E 031°58'0 0.0
2018-Feb-11 18:29N 46°51' E 031°58'0 0.0
2018-Feb-11 17:59N 46°51' E 031°58'51657.5
2018-Feb-11 17:54N 46°28' E 030°52'51121.0
2018-Feb-11 17:29N 46°51' E 031°58'0 0.0
2018-Feb-11 16:59N 46°51' E 031°58'0 0.0
2018-Feb-11 16:29N 46°51' E 031°58'0 0.0
2018-Feb-11 15:59N 46°51' E 031°58'0 0.0
2018-Feb-11 15:29N 46°51' E 031°58'0 0.0
2018-Feb-11 14:59N 46°51' E 031°58'0 0.0
2018-Feb-11 14:29N 46°51' E 031°58'51161.0
2018-Feb-11 14:10N 46°28' E 030°52'51280.0
2018-Feb-11 13:59N 46°51' E 031°58'51123.1
2018-Feb-11 13:34N 46°28' E 030°52'51599.0
2018-Feb-11 13:29N 46°51' E 031°58'0 0.0
2018-Feb-11 12:59N 46°51' E 031°58'0 0.0
2018-Feb-11 12:29N 46°51' E 031°58'607719208.2
2018-Feb-11 12:10N 29°33' W 095°02'607733048.5
2018-Feb-11 11:59N 46°51' E 031°58'0 0.0
2018-Feb-11 11:29N 46°51' E 031°58'0 0.0
2018-Feb-11 10:59N 46°51' E 031°58'0 0.0
2018-Feb-11 10:29N 46°51' E 031°58'607727076.8
2018-Feb-11 10:15N 29°33' W 095°02'607722032.3
2018-Feb-11 09:59N 46°51' E 031°58'0 0.0
2018-Feb-11 09:29N 46°51' E 031°58'0 0.0
2018-Feb-11 08:59N 46°51' E 031°58'0 0.0
2018-Feb-11 08:29N 46°51' E 031°58'0 0.0
2018-Feb-11 07:59N 46°51' E 031°58'0 0.0
2018-Feb-11 07:29N 46°51' E 031°58'0 0.0
2018-Feb-11 06:50N 46°51' E 031°58'607740665.6
2018-Feb-11 06:41N 29°33' W 095°02'607730344.1
2018-Feb-11 06:29N 46°51' E 031°58'607766297.3
2018-Feb-11 06:23N 29°33' W 095°02'607714883.1
2018-Feb-11 05:59N 46°51' E 031°58'51155.4
2018-Feb-11 05:39N 46°28' E 030°52'51296.7
2018-Feb-11 05:29N 46°51' E 031°58'0 0.0
2018-Feb-11 04:59N 46°51' E 031°58'0 0.0
2018-Feb-11 04:29N 46°51' E 031°58'51351.8
2018-Feb-11 04:20N 46°28' E 030°52'0 0.0
2018-Feb-11 04:01N 46°28' E 030°52'511669.4
2018-Feb-11 03:59N 46°51' E 031°58'0 0.5
2018-Feb-11 03:29N 46°51' E 031°59'51113.7
2018-Feb-11 03:02N 46°28' E 030°52'51994.3
2018-Feb-11 02:59N 46°51' E 031°59'51343.8
2018-Feb-11 02:50N 46°28' E 030°52'0 0.5
2018-Feb-11 02:30N 46°28' E 030°52'511962.1
2018-Feb-11 02:29N 46°51' E 031°59'52104.5
2018-Feb-11 01:59N 46°28' E 030°51'529287.5
2018-Feb-11 01:59N 46°51' E 031°58'0 0.0
2018-Feb-11 01:29N 46°51' E 031°58'0 0.0
2018-Feb-11 00:59N 46°51' E 031°58'0 0.0
2018-Feb-11 00:29N 46°51' E 031°58'0 0.0
2018-Feb-10 23:59N 46°51' E 031°58'0 0.0
2018-Feb-10 23:29N 46°51' E 031°58'607766498.6
2018-Feb-10 23:23N 29°33' W 095°02'8234307.9
2018-Feb-10 23:12N 25°44' W 080°09'556925604.6
2018-Feb-10 22:59N 46°51' E 031°58'6077145853.9
2018-Feb-10 22:56N 29°33' W 095°02'82320300.6
2018-Feb-10 22:54N 25°44' W 080°09'556913338.9
2018-Feb-10 22:29N 46°51' E 031°58'5569171353.6
2018-Feb-10 22:27N 25°44' W 080°09'82389812.4
2018-Feb-10 22:26N 29°33' W 095°02'607713259.4
2018-Feb-10 21:59N 46°51' E 031°58'557220343.4
2018-Feb-10 21:42N 25°40' W 080°10'8247012.4
2018-Feb-10 21:35N 29°33' W 095°02'607755811.4
2018-Feb-10 21:29N 46°51' E 031°58'607726107.5
2018-Feb-10 21:15N 29°33' W 095°02'607722742.3
2018-Feb-10 20:59N 46°51' E 031°58'607723524.8
2018-Feb-10 20:43N 29°33' W 095°02'607725147.2
2018-Feb-10 20:29N 46°51' E 031°58'607738450.0
2018-Feb-10 20:19N 29°33' W 095°02'607717772.6
2018-Feb-10 19:59N 46°51' E 031°58'  

Dump ship's entire track history